Back to Top

Language: 

My Weather Underground Personal Weather Station Historical Data with Graphs...

Delerius Weather Station Historical Data
Daily Summary for December 28, 2017 Units:  Both    English   Metric
« Previous Day
Next Day »
Daily Weekly Monthly Yearly Custom
  High: Low: Average:
Temperature: 41.7 °F /  5.4 °C 31.3 °F /  -0.4 °C 36.1 °F /  2.3 °C
Dew Point: 35.4 °F /  1.9 °C 27.4 °F /  -2.6 °C 31.6 °F /  -0.2 °C
Humidity: 92 % 74 % 84 %
Wind Speed: 16.0 mph /  25.7 km/h - 8.4 mph /  13.5 km/h
Wind Gust: 25.0 mph /  40.2 km/h - -
Wind:- - WNW
Pressure: 29.63 in /  1003.3 hPa 29.45 in /  997.2 hPa -
Precipitation: 0.00 in /  0 mm    
Historical Graphs
 
 
Tabular Data for December 28, 2017
Time Temperature Dew Point Pressure Wind Wind Speed Wind Gust Humidity Rainfall Rate (Hourly) solar Conditions
00:04 32.7 °F /  0.4 °C 28.1 °F /  -2.2 °C 29.46 in /  997.5 hPa WNW 8.0 mph /  12.9 km/h 11.0 mph /  17.7 km/h 83 % 0.00 in /  0 mm 0 W/m2
00:05 32.7 °F /  0.4 °C 28.1 °F /  -2.2 °C 29.46 in /  997.5 hPa WNW 8.0 mph /  12.9 km/h 12.0 mph /  19.3 km/h 83 % 0.00 in /  0 mm 0 W/m2
00:10 32.7 °F /  0.4 °C 28.4 °F /  -2 °C 29.46 in /  997.5 hPa WNW 6.0 mph /  9.7 km/h 10.0 mph /  16.1 km/h 84 % 0.00 in /  0 mm 0 W/m2
00:11 32.7 °F /  0.4 °C 28.4 °F /  -2 °C 29.46 in /  997.5 hPa WNW 7.0 mph /  11.3 km/h 11.0 mph /  17.7 km/h 84 % 0.00 in /  0 mm 0 W/m2
00:16 32.9 °F /  0.5 °C 28.6 °F /  -1.9 °C 29.46 in /  997.5 hPa NW 5.0 mph /  8 km/h 8.0 mph /  12.9 km/h 84 % 0.00 in /  0 mm 0 W/m2
00:18 32.9 °F /  0.5 °C 28.6 °F /  -1.9 °C 29.46 in /  997.5 hPa NW 6.0 mph /  9.7 km/h 10.0 mph /  16.1 km/h 84 % 0.00 in /  0 mm 0 W/m2
00:22 32.9 °F /  0.5 °C 28.6 °F /  -1.9 °C 29.46 in /  997.5 hPa NW 6.0 mph /  9.7 km/h 12.0 mph /  19.3 km/h 84 % 0.00 in /  0 mm 0 W/m2
00:24 32.9 °F /  0.5 °C 28.6 °F /  -1.9 °C 29.46 in /  997.5 hPa NW 7.0 mph /  11.3 km/h 12.0 mph /  19.3 km/h 84 % 0.00 in /  0 mm 0 W/m2
00:29 33.1 °F /  0.6 °C 28.5 °F /  -1.9 °C 29.46 in /  997.5 hPa WNW 7.0 mph /  11.3 km/h 11.0 mph /  17.7 km/h 83 % 0.00 in /  0 mm 0 W/m2
00:34 33.1 °F /  0.6 °C 28.5 °F /  -1.9 °C 29.47 in /  997.9 hPa WNW 8.0 mph /  12.9 km/h 11.0 mph /  17.7 km/h 83 % 0.00 in /  0 mm 0 W/m2
00:39 33.1 °F /  0.6 °C 28.5 °F /  -1.9 °C 29.47 in /  997.9 hPa WNW 7.0 mph /  11.3 km/h 9.0 mph /  14.5 km/h 83 % 0.00 in /  0 mm 0 W/m2
00:40 33.1 °F /  0.6 °C 28.5 °F /  -1.9 °C 29.47 in /  997.9 hPa WNW 7.0 mph /  11.3 km/h 9.0 mph /  14.5 km/h 83 % 0.00 in /  0 mm 0 W/m2
00:45 32.9 °F /  0.5 °C 28.3 °F /  -2.1 °C 29.47 in /  997.9 hPa WNW 6.0 mph /  9.7 km/h 9.0 mph /  14.5 km/h 83 % 0.00 in /  0 mm 0 W/m2
00:46 32.9 °F /  0.5 °C 28.3 °F /  -2.1 °C 29.47 in /  997.9 hPa WNW 6.0 mph /  9.7 km/h 9.0 mph /  14.5 km/h 83 % 0.00 in /  0 mm 0 W/m2
00:47 32.7 °F /  0.4 °C 28.1 °F /  -2.2 °C 29.47 in /  997.9 hPa WNW 7.0 mph /  11.3 km/h 10.0 mph /  16.1 km/h 83 % 0.00 in /  0 mm 0 W/m2
00:51 32.7 °F /  0.4 °C 28.1 °F /  -2.2 °C 29.46 in /  997.5 hPa WNW 7.0 mph /  11.3 km/h 10.0 mph /  16.1 km/h 83 % 0.00 in /  0 mm 0 W/m2
00:56 32.5 °F /  0.3 °C 28.0 °F /  -2.2 °C 29.46 in /  997.5 hPa WNW 7.0 mph /  11.3 km/h 12.0 mph /  19.3 km/h 83 % 0.00 in /  0 mm 0 W/m2
01:01 32.5 °F /  0.3 °C 28.0 °F /  -2.2 °C 29.47 in /  997.9 hPa WNW 8.0 mph /  12.9 km/h 11.0 mph /  17.7 km/h 83 % 0.00 in /  0 mm 0 W/m2
01:04 32.5 °F /  0.3 °C 28.0 °F /  -2.2 °C 29.47 in /  997.9 hPa WNW 8.0 mph /  12.9 km/h 11.0 mph /  17.7 km/h 83 % 0.00 in /  0 mm 0 W/m2
01:09 32.4 °F /  0.2 °C 27.8 °F /  -2.3 °C 29.46 in /  997.5 hPa WNW 7.0 mph /  11.3 km/h 10.0 mph /  16.1 km/h 83 % 0.00 in /  0 mm 0 W/m2
01:11 32.4 °F /  0.2 °C 28.1 °F /  -2.2 °C 29.47 in /  997.9 hPa WNW 8.0 mph /  12.9 km/h 10.0 mph /  16.1 km/h 84 % 0.00 in /  0 mm 0 W/m2
01:15 32.4 °F /  0.2 °C 28.1 °F /  -2.2 °C 29.47 in /  997.9 hPa WNW 7.0 mph /  11.3 km/h 9.0 mph /  14.5 km/h 84 % 0.00 in /  0 mm 0 W/m2
01:18 32.4 °F /  0.2 °C 28.1 °F /  -2.2 °C 29.47 in /  997.9 hPa WNW 6.0 mph /  9.7 km/h 8.0 mph /  12.9 km/h 84 % 0.00 in /  0 mm 0 W/m2
01:21 32.4 °F /  0.2 °C 28.1 °F /  -2.2 °C 29.47 in /  997.9 hPa WNW 6.0 mph /  9.7 km/h 7.0 mph /  11.3 km/h 84 % 0.00 in /  0 mm 0 W/m2
01:26 32.2 °F /  0.1 °C 27.9 °F /  -2.3 °C 29.47 in /  997.9 hPa WNW 5.0 mph /  8 km/h 7.0 mph /  11.3 km/h 84 % 0.00 in /  0 mm 0 W/m2
01:28 32.0 °F /  0 °C 27.7 °F /  -2.4 °C 29.47 in /  997.9 hPa WNW 4.0 mph /  6.4 km/h 6.0 mph /  9.7 km/h 84 % 0.00 in /  0 mm 0 W/m2
01:33 31.8 °F /  -0.1 °C 27.5 °F /  -2.5 °C 29.47 in /  997.9 hPa WNW 6.0 mph /  9.7 km/h 9.0 mph /  14.5 km/h 84 % 0.00 in /  0 mm 0 W/m2
01:34 31.6 °F /  -0.2 °C 27.4 °F /  -2.6 °C 29.47 in /  997.9 hPa WNW 6.0 mph /  9.7 km/h 9.0 mph /  14.5 km/h 84 % 0.00 in /  0 mm 0 W/m2
01:39 31.6 °F /  -0.2 °C 27.6 °F /  -2.4 °C 29.47 in /  997.9 hPa WNW 6.0 mph /  9.7 km/h 8.0 mph /  12.9 km/h 85 % 0.00 in /  0 mm 0 W/m2
01:40 31.6 °F /  -0.2 °C 27.6 °F /  -2.4 °C 29.47 in /  997.9 hPa WNW 6.0 mph /  9.7 km/h 8.0 mph /  12.9 km/h 85 % 0.00 in /  0 mm 0 W/m2
01:41 31.5 °F /  -0.3 °C 27.5 °F /  -2.5 °C 29.47 in /  997.9 hPa WNW 7.0 mph /  11.3 km/h 8.0 mph /  12.9 km/h 85 % 0.00 in /  0 mm 0 W/m2
01:46 31.5 °F /  -0.3 °C 27.8 °F /  -2.3 °C 29.47 in /  997.9 hPa WNW 6.0 mph /  9.7 km/h 9.0 mph /  14.5 km/h 86 % 0.00 in /  0 mm 0 W/m2
01:51 31.3 °F /  -0.4 °C 27.6 °F /  -2.4 °C 29.47 in /  997.9 hPa WNW 7.0 mph /  11.3 km/h 10.0 mph /  16.1 km/h 86 % 0.00 in /  0 mm 0 W/m2
01:54 31.3 °F /  -0.4 °C 27.6 °F /  -2.4 °C 29.47 in /  997.9 hPa WNW 7.0 mph /  11.3 km/h 10.0 mph /  16.1 km/h 86 % 0.00 in /  0 mm 0 W/m2
01:57 31.5 °F /  -0.3 °C 28.0 °F /  -2.2 °C 29.47 in /  997.9 hPa WNW 7.0 mph /  11.3 km/h 10.0 mph /  16.1 km/h 87 % 0.00 in /  0 mm 0 W/m2
02:03 31.5 °F /  -0.3 °C 28.0 °F /  -2.2 °C 29.47 in /  997.9 hPa WNW 6.0 mph /  9.7 km/h 10.0 mph /  16.1 km/h 87 % 0.00 in /  0 mm 0 W/m2
02:05 31.5 °F /  -0.3 °C 28.0 °F /  -2.2 °C 29.47 in /  997.9 hPa WNW 5.0 mph /  8 km/h 8.0 mph /  12.9 km/h 87 % 0.00 in /  0 mm 0 W/m2
02:09 31.6 °F /  -0.2 °C 28.2 °F /  -2.1 °C 29.47 in /  997.9 hPa WNW 5.0 mph /  8 km/h 8.0 mph /  12.9 km/h 87 % 0.00 in /  0 mm 0 W/m2
02:14 31.6 °F /  -0.2 °C 28.2 °F /  -2.1 °C 29.47 in /  997.9 hPa WNW 5.0 mph /  8 km/h 8.0 mph /  12.9 km/h 87 % 0.00 in /  0 mm 0 W/m2
02:19 31.8 °F /  -0.1 °C 28.4 °F /  -2 °C 29.47 in /  997.9 hPa WNW 5.0 mph /  8 km/h 8.0 mph /  12.9 km/h 87 % 0.00 in /  0 mm 0 W/m2
02:20 31.8 °F /  -0.1 °C 28.4 °F /  -2 °C 29.47 in /  997.9 hPa WNW 5.0 mph /  8 km/h 10.0 mph /  16.1 km/h 87 % 0.00 in /  0 mm 0 W/m2
02:25 32.0 °F /  0 °C 28.6 °F /  -1.9 °C 29.47 in /  997.9 hPa WNW 6.0 mph /  9.7 km/h 9.0 mph /  14.5 km/h 87 % 0.00 in /  0 mm 0 W/m2
02:30 32.2 °F /  0.1 °C 28.7 °F /  -1.8 °C 29.46 in /  997.5 hPa West 6.0 mph /  9.7 km/h 8.0 mph /  12.9 km/h 87 % 0.00 in /  0 mm 0 W/m2
02:33 32.2 °F /  0.1 °C 28.5 °F /  -1.9 °C 29.46 in /  997.5 hPa West 4.0 mph /  6.4 km/h 7.0 mph /  11.3 km/h 86 % 0.00 in /  0 mm 0 W/m2
02:35 32.4 °F /  0.2 °C 28.6 °F /  -1.9 °C 29.46 in /  997.5 hPa West 4.0 mph /  6.4 km/h 9.0 mph /  14.5 km/h 86 % 0.00 in /  0 mm 0 W/m2
02:40 32.5 °F /  0.3 °C 28.8 °F /  -1.8 °C 29.47 in /  997.9 hPa WNW 5.0 mph /  8 km/h 9.0 mph /  14.5 km/h 86 % 0.00 in /  0 mm 0 W/m2
02:42 32.5 °F /  0.3 °C 28.5 °F /  -1.9 °C 29.46 in /  997.5 hPa WNW 5.0 mph /  8 km/h 8.0 mph /  12.9 km/h 85 % 0.00 in /  0 mm 0 W/m2
02:47 32.5 °F /  0.3 °C 28.5 °F /  -1.9 °C 29.46 in /  997.5 hPa West 7.0 mph /  11.3 km/h 11.0 mph /  17.7 km/h 85 % 0.00 in /  0 mm 0 W/m2
02:49 32.5 °F /  0.3 °C 28.5 °F /  -1.9 °C 29.46 in /  997.5 hPa West 7.0 mph /  11.3 km/h 13.0 mph /  20.9 km/h 85 % 0.00 in /  0 mm 0 W/m2
02:54 32.7 °F /  0.4 °C 28.4 °F /  -2 °C 29.46 in /  997.5 hPa WNW 7.0 mph /  11.3 km/h 13.0 mph /  20.9 km/h 84 % 0.00 in /  0 mm 0 W/m2
02:56 32.9 °F /  0.5 °C 28.6 °F /  -1.9 °C 29.46 in /  997.5 hPa WNW 7.0 mph /  11.3 km/h 11.0 mph /  17.7 km/h 84 % 0.00 in /  0 mm 0 W/m2
03:02 33.1 °F /  0.6 °C 28.8 °F /  -1.8 °C 29.46 in /  997.5 hPa WNW 5.0 mph /  8 km/h 11.0 mph /  17.7 km/h 84 % 0.00 in /  0 mm 0 W/m2
03:04 33.1 °F /  0.6 °C 28.5 °F /  -1.9 °C 29.46 in /  997.5 hPa WNW 6.0 mph /  9.7 km/h 11.0 mph /  17.7 km/h 83 % 0.00 in /  0 mm 0 W/m2
03:06 33.3 °F /  0.7 °C 28.7 °F /  -1.8 °C 29.46 in /  997.5 hPa WNW 4.0 mph /  6.4 km/h 7.0 mph /  11.3 km/h 83 % 0.00 in /  0 mm 0 W/m2
03:09 33.3 °F /  0.7 °C 28.7 °F /  -1.8 °C 29.46 in /  997.5 hPa WNW 7.0 mph /  11.3 km/h 12.0 mph /  19.3 km/h 83 % 0.00 in /  0 mm 0 W/m2
03:16 33.4 °F /  0.8 °C 29.1 °F /  -1.6 °C 29.46 in /  997.5 hPa WNW 7.0 mph /  11.3 km/h 9.0 mph /  14.5 km/h 84 % 0.00 in /  0 mm 0 W/m2
03:19 33.4 °F /  0.8 °C 29.1 °F /  -1.6 °C 29.46 in /  997.5 hPa WNW 8.0 mph /  12.9 km/h 14.0 mph /  22.5 km/h 84 % 0.00 in /  0 mm 0 W/m2
03:20 33.4 °F /  0.8 °C 29.1 °F /  -1.6 °C 29.46 in /  997.5 hPa WNW 7.0 mph /  11.3 km/h 12.0 mph /  19.3 km/h 84 % 0.00 in /  0 mm 0 W/m2
03:25 33.6 °F /  0.9 °C 29.3 °F /  -1.5 °C 29.46 in /  997.5 hPa WNW 8.0 mph /  12.9 km/h 12.0 mph /  19.3 km/h 84 % 0.00 in /  0 mm 0 W/m2
03:26 33.6 °F /  0.9 °C 29.3 °F /  -1.5 °C 29.46 in /  997.5 hPa WNW 7.0 mph /  11.3 km/h 12.0 mph /  19.3 km/h 84 % 0.00 in /  0 mm 0 W/m2
03:30 34.0 °F /  1.1 °C 29.7 °F /  -1.3 °C 29.45 in /  997.2 hPa NW 7.0 mph /  11.3 km/h 13.0 mph /  20.9 km/h 84 % 0.00 in /  0 mm 0 W/m2
03:35 34.0 °F /  1.1 °C 29.7 °F /  -1.3 °C 29.45 in /  997.2 hPa WNW 6.0 mph /  9.7 km/h 9.0 mph /  14.5 km/h 84 % 0.00 in /  0 mm 0 W/m2
03:36 34.0 °F /  1.1 °C 29.7 °F /  -1.3 °C 29.45 in /  997.2 hPa WNW 7.0 mph /  11.3 km/h 12.0 mph /  19.3 km/h 84 % 0.00 in /  0 mm 0 W/m2
03:41 34.0 °F /  1.1 °C 29.7 °F /  -1.3 °C 29.45 in /  997.2 hPa WNW 8.0 mph /  12.9 km/h 11.0 mph /  17.7 km/h 84 % 0.00 in /  0 mm 0 W/m2
03:42 34.0 °F /  1.1 °C 29.7 °F /  -1.3 °C 29.46 in /  997.5 hPa WNW 8.0 mph /  12.9 km/h 11.0 mph /  17.7 km/h 84 % 0.00 in /  0 mm 0 W/m2
03:47 34.2 °F /  1.2 °C 30.1 °F /  -1.1 °C 29.46 in /  997.5 hPa WNW 10.0 mph /  16.1 km/h 15.0 mph /  24.1 km/h 85 % 0.00 in /  0 mm 0 W/m2
03:52 34.2 °F /  1.2 °C 30.1 °F /  -1.1 °C 29.45 in /  997.2 hPa WNW 10.0 mph /  16.1 km/h 15.0 mph /  24.1 km/h 85 % 0.00 in /  0 mm 0 W/m2
03:53 34.2 °F /  1.2 °C 30.1 °F /  -1.1 °C 29.45 in /  997.2 hPa WNW 10.0 mph /  16.1 km/h 15.0 mph /  24.1 km/h 85 % 0.00 in /  0 mm 0 W/m2
03:58 34.3 °F /  1.3 °C 30.3 °F /  -0.9 °C 29.45 in /  997.2 hPa WNW 9.0 mph /  14.5 km/h 15.0 mph /  24.1 km/h 85 % 0.00 in /  0 mm 0 W/m2
04:03 34.5 °F /  1.4 °C 30.5 °F /  -0.8 °C 29.45 in /  997.2 hPa WNW 7.0 mph /  11.3 km/h 13.0 mph /  20.9 km/h 85 % 0.00 in /  0 mm 0 W/m2
04:05 34.5 °F /  1.4 °C 30.2 °F /  -1 °C 29.45 in /  997.2 hPa WNW 6.0 mph /  9.7 km/h 13.0 mph /  20.9 km/h 84 % 0.00 in /  0 mm 0 W/m2
04:09 34.5 °F /  1.4 °C 30.2 °F /  -1 °C 29.45 in /  997.2 hPa WNW 7.0 mph /  11.3 km/h 11.0 mph /  17.7 km/h 84 % 0.00 in /  0 mm 0 W/m2
04:14 34.5 °F /  1.4 °C 30.5 °F /  -0.8 °C 29.45 in /  997.2 hPa WNW 10.0 mph /  16.1 km/h 19.0 mph /  30.6 km/h 85 % 0.00 in /  0 mm 0 W/m2
04:16 34.7 °F /  1.5 °C 30.7 °F /  -0.7 °C 29.45 in /  997.2 hPa WNW 11.0 mph /  17.7 km/h 19.0 mph /  30.6 km/h 85 % 0.00 in /  0 mm 0 W/m2
04:21 34.9 °F /  1.6 °C 30.8 °F /  -0.7 °C 29.45 in /  997.2 hPa WNW 10.0 mph /  16.1 km/h 15.0 mph /  24.1 km/h 85 % 0.00 in /  0 mm 0 W/m2
04:22 34.9 °F /  1.6 °C 30.8 °F /  -0.7 °C 29.45 in /  997.2 hPa WNW 10.0 mph /  16.1 km/h 15.0 mph /  24.1 km/h 85 % 0.00 in /  0 mm 0 W/m2
04:27 35.1 °F /  1.7 °C 31.0 °F /  -0.6 °C 29.46 in /  997.5 hPa WNW 8.0 mph /  12.9 km/h 18.0 mph /  29 km/h 85 % 0.00 in /  0 mm 0 W/m2
04:29 35.1 °F /  1.7 °C 31.0 °F /  -0.6 °C 29.46 in /  997.5 hPa WNW 9.0 mph /  14.5 km/h 13.0 mph /  20.9 km/h 85 % 0.00 in /  0 mm 0 W/m2
04:34 35.1 °F /  1.7 °C 31.0 °F /  -0.6 °C 29.46 in /  997.5 hPa WNW 9.0 mph /  14.5 km/h 14.0 mph /  22.5 km/h 85 % 0.00 in /  0 mm 0 W/m2
04:37 35.1 °F /  1.7 °C 31.0 °F /  -0.6 °C 29.46 in /  997.5 hPa WNW 9.0 mph /  14.5 km/h 14.0 mph /  22.5 km/h 85 % 0.00 in /  0 mm 0 W/m2
04:42 35.1 °F /  1.7 °C 30.7 °F /  -0.7 °C 29.46 in /  997.5 hPa WNW 9.0 mph /  14.5 km/h 15.0 mph /  24.1 km/h 84 % 0.00 in /  0 mm 0 W/m2
04:44 35.1 °F /  1.7 °C 30.7 °F /  -0.7 °C 29.46 in /  997.5 hPa WNW 10.0 mph /  16.1 km/h 15.0 mph /  24.1 km/h 84 % 0.00 in /  0 mm 0 W/m2
04:45 35.1 °F /  1.7 °C 30.7 °F /  -0.7 °C 29.46 in /  997.5 hPa WNW 10.0 mph /  16.1 km/h 15.0 mph /  24.1 km/h 84 % 0.00 in /  0 mm 0 W/m2
04:50 35.1 °F /  1.7 °C 30.7 °F /  -0.7 °C 29.46 in /  997.5 hPa WNW 10.0 mph /  16.1 km/h 15.0 mph /  24.1 km/h 84 % 0.00 in /  0 mm 0 W/m2
04:51 35.1 °F /  1.7 °C 30.7 °F /  -0.7 °C 29.46 in /  997.5 hPa WNW 10.0 mph /  16.1 km/h 15.0 mph /  24.1 km/h 84 % 0.00 in /  0 mm 0 W/m2
04:53 35.2 °F /  1.8 °C 30.9 °F /  -0.6 °C 29.46 in /  997.5 hPa WNW 11.0 mph /  17.7 km/h 16.0 mph /  25.7 km/h 84 % 0.00 in /  0 mm 0 W/m2
04:56 35.2 °F /  1.8 °C 30.9 °F /  -0.6 °C 29.46 in /  997.5 hPa WNW 10.0 mph /  16.1 km/h 15.0 mph /  24.1 km/h 84 % 0.00 in /  0 mm 0 W/m2
05:02 35.2 °F /  1.8 °C 30.9 °F /  -0.6 °C 29.46 in /  997.5 hPa WNW 10.0 mph /  16.1 km/h 15.0 mph /  24.1 km/h 84 % 0.00 in /  0 mm 0 W/m2
05:07 35.2 °F /  1.8 °C 30.9 °F /  -0.6 °C 29.46 in /  997.5 hPa WNW 11.0 mph /  17.7 km/h 16.0 mph /  25.7 km/h 84 % 0.00 in /  0 mm 0 W/m2
05:09 35.2 °F /  1.8 °C 30.9 °F /  -0.6 °C 29.46 in /  997.5 hPa WNW 11.0 mph /  17.7 km/h 18.0 mph /  29 km/h 84 % 0.00 in /  0 mm 0 W/m2
05:11 35.2 °F /  1.8 °C 30.9 °F /  -0.6 °C 29.45 in /  997.2 hPa WNW 12.0 mph /  19.3 km/h 18.0 mph /  29 km/h 84 % 0.00 in /  0 mm 0 W/m2
05:14 35.2 °F /  1.8 °C 30.9 °F /  -0.6 °C 29.46 in /  997.5 hPa WNW 10.0 mph /  16.1 km/h 16.0 mph /  25.7 km/h 84 % 0.00 in /  0 mm 0 W/m2
05:17 35.2 °F /  1.8 °C 30.9 °F /  -0.6 °C 29.46 in /  997.5 hPa WNW 11.0 mph /  17.7 km/h 20.0 mph /  32.2 km/h 84 % 0.00 in /  0 mm 0 W/m2
05:20 35.2 °F /  1.8 °C 30.9 °F /  -0.6 °C 29.46 in /  997.5 hPa WNW 12.0 mph /  19.3 km/h 18.0 mph /  29 km/h 84 % 0.00 in /  0 mm 0 W/m2
05:21 35.2 °F /  1.8 °C 30.9 °F /  -0.6 °C 29.46 in /  997.5 hPa WNW 11.0 mph /  17.7 km/h 14.0 mph /  22.5 km/h 84 % 0.00 in /  0 mm 0 W/m2
05:26 35.2 °F /  1.8 °C 30.9 °F /  -0.6 °C 29.45 in /  997.2 hPa WNW 11.0 mph /  17.7 km/h 16.0 mph /  25.7 km/h 84 % 0.00 in /  0 mm 0 W/m2
05:27 35.2 °F /  1.8 °C 30.9 °F /  -0.6 °C 29.45 in /  997.2 hPa WNW 10.0 mph /  16.1 km/h 15.0 mph /  24.1 km/h 84 % 0.00 in /  0 mm 0 W/m2
05:31 35.2 °F /  1.8 °C 30.9 °F /  -0.6 °C 29.45 in /  997.2 hPa WNW 12.0 mph /  19.3 km/h 16.0 mph /  25.7 km/h 84 % 0.00 in /  0 mm 0 W/m2
05:32 35.2 °F /  1.8 °C 30.9 °F /  -0.6 °C 29.45 in /  997.2 hPa WNW 12.0 mph /  19.3 km/h 18.0 mph /  29 km/h 84 % 0.00 in /  0 mm 0 W/m2
05:37 35.2 °F /  1.8 °C 31.2 °F /  -0.4 °C 29.45 in /  997.2 hPa WNW 12.0 mph /  19.3 km/h 22.0 mph /  35.4 km/h 85 % 0.00 in /  0 mm 0 W/m2
05:42 35.2 °F /  1.8 °C 31.2 °F /  -0.4 °C 29.46 in /  997.5 hPa WNW 12.0 mph /  19.3 km/h 18.0 mph /  29 km/h 85 % 0.00 in /  0 mm 0 W/m2
05:43 35.2 °F /  1.8 °C 31.2 °F /  -0.4 °C 29.46 in /  997.5 hPa WNW 12.0 mph /  19.3 km/h 18.0 mph /  29 km/h 85 % 0.00 in /  0 mm 0 W/m2
05:48 35.4 °F /  1.9 °C 31.4 °F /  -0.3 °C 29.46 in /  997.5 hPa WNW 11.0 mph /  17.7 km/h 18.0 mph /  29 km/h 85 % 0.00 in /  0 mm 0 W/m2
05:49 35.4 °F /  1.9 °C 31.4 °F /  -0.3 °C 29.46 in /  997.5 hPa WNW 11.0 mph /  17.7 km/h 18.0 mph /  29 km/h 85 % 0.00 in /  0 mm 0 W/m2
05:54 35.4 °F /  1.9 °C 31.4 °F /  -0.3 °C 29.46 in /  997.5 hPa WNW 13.0 mph /  20.9 km/h 19.0 mph /  30.6 km/h 85 % 0.00 in /  0 mm 0 W/m2
05:56 35.6 °F /  2 °C 31.5 °F /  -0.3 °C 29.46 in /  997.5 hPa WNW 12.0 mph /  19.3 km/h 18.0 mph /  29 km/h 85 % 0.00 in /  0 mm 0 W/m2
05:59 35.6 °F /  2 °C 31.5 °F /  -0.3 °C 29.46 in /  997.5 hPa WNW 11.0 mph /  17.7 km/h 16.0 mph /  25.7 km/h 85 % 0.00 in /  0 mm 0 W/m2
06:02 35.6 °F /  2 °C 31.5 °F /  -0.3 °C 29.46 in /  997.5 hPa WNW 9.0 mph /  14.5 km/h 15.0 mph /  24.1 km/h 85 % 0.00 in /  0 mm 0 W/m2
06:05 35.8 °F /  2.1 °C 31.7 °F /  -0.2 °C 29.46 in /  997.5 hPa WNW 9.0 mph /  14.5 km/h 15.0 mph /  24.1 km/h 85 % 0.00 in /  0 mm 0 W/m2
06:08 35.8 °F /  2.1 °C 32.0 °F /  0 °C 29.46 in /  997.5 hPa WNW 8.0 mph /  12.9 km/h 11.0 mph /  17.7 km/h 86 % 0.00 in /  0 mm 0 W/m2
06:12 35.8 °F /  2.1 °C 32.0 °F /  0 °C 29.46 in /  997.5 hPa West 8.0 mph /  12.9 km/h 13.0 mph /  20.9 km/h 86 % 0.00 in /  0 mm 0 W/m2
06:14 35.8 °F /  2.1 °C 32.0 °F /  0 °C 29.46 in /  997.5 hPa WNW 10.0 mph /  16.1 km/h 18.0 mph /  29 km/h 86 % 0.00 in /  0 mm 0 W/m2
06:18 35.8 °F /  2.1 °C 32.0 °F /  0 °C 29.46 in /  997.5 hPa WNW 8.0 mph /  12.9 km/h 12.0 mph /  19.3 km/h 86 % 0.00 in /  0 mm 0 W/m2
06:21 35.8 °F /  2.1 °C 32.0 °F /  0 °C 29.46 in /  997.5 hPa WNW 9.0 mph /  14.5 km/h 15.0 mph /  24.1 km/h 86 % 0.00 in /  0 mm 0 W/m2
06:26 35.8 °F /  2.1 °C 32.0 °F /  0 °C 29.46 in /  997.5 hPa WNW 11.0 mph /  17.7 km/h 15.0 mph /  24.1 km/h 86 % 0.00 in /  0 mm 0 W/m2
06:27 35.8 °F /  2.1 °C 32.0 °F /  0 °C 29.46 in /  997.5 hPa WNW 9.0 mph /  14.5 km/h 14.0 mph /  22.5 km/h 86 % 0.00 in /  0 mm 0 W/m2
06:32 36.0 °F /  2.2 °C 32.2 °F /  0.1 °C 29.46 in /  997.5 hPa WNW 11.0 mph /  17.7 km/h 16.0 mph /  25.7 km/h 86 % 0.00 in /  0 mm 0 W/m2
06:33 36.0 °F /  2.2 °C 32.2 °F /  0.1 °C 29.46 in /  997.5 hPa WNW 12.0 mph /  19.3 km/h 18.0 mph /  29 km/h 86 % 0.00 in /  0 mm 0 W/m2
06:35 36.0 °F /  2.2 °C 32.2 °F /  0.1 °C 29.46 in /  997.5 hPa West 13.0 mph /  20.9 km/h 24.0 mph /  38.6 km/h 86 % 0.00 in /  0 mm 0 W/m2
06:39 36.1 °F /  2.3 °C 32.4 °F /  0.2 °C 29.46 in /  997.5 hPa West 13.0 mph /  20.9 km/h 25.0 mph /  40.2 km/h 86 % 0.00 in /  0 mm 0 W/m2
06:44 36.1 °F /  2.3 °C 32.1 °F /  0.1 °C 29.47 in /  997.9 hPa WNW 12.0 mph /  19.3 km/h 20.0 mph /  32.2 km/h 85 % 0.00 in /  0 mm 0 W/m2
06:49 36.0 °F /  2.2 °C 31.9 °F /  -0.1 °C 29.46 in /  997.5 hPa WNW 11.0 mph /  17.7 km/h 18.0 mph /  29 km/h 85 % 0.00 in /  0 mm 0 W/m2
06:51 36.0 °F /  2.2 °C 31.9 °F /  -0.1 °C 29.47 in /  997.9 hPa West 10.0 mph /  16.1 km/h 16.0 mph /  25.7 km/h 85 % 0.00 in /  0 mm 0 W/m2
06:53 36.0 °F /  2.2 °C 31.9 °F /  -0.1 °C 29.46 in /  997.5 hPa WNW 10.0 mph /  16.1 km/h 14.0 mph /  22.5 km/h 85 % 0.00 in /  0 mm 0 W/m2
06:57 36.0 °F /  2.2 °C 31.9 °F /  -0.1 °C 29.46 in /  997.5 hPa WNW 10.0 mph /  16.1 km/h 15.0 mph /  24.1 km/h 85 % 0.00 in /  0 mm 0 W/m2
06:58 35.8 °F /  2.1 °C 31.7 °F /  -0.2 °C 29.46 in /  997.5 hPa WNW 10.0 mph /  16.1 km/h 15.0 mph /  24.1 km/h 85 % 0.00 in /  0 mm 0 W/m2
07:03 35.8 °F /  2.1 °C 32.0 °F /  0 °C 29.46 in /  997.5 hPa WNW 9.0 mph /  14.5 km/h 18.0 mph /  29 km/h 86 % 0.00 in /  0 mm 0 W/m2
07:04 35.8 °F /  2.1 °C 32.0 °F /  0 °C 29.46 in /  997.5 hPa WNW 9.0 mph /  14.5 km/h 18.0 mph /  29 km/h 86 % 0.00 in /  0 mm 0 W/m2
07:09 35.6 °F /  2 °C 31.8 °F /  -0.1 °C 29.47 in /  997.9 hPa WNW 11.0 mph /  17.7 km/h 15.0 mph /  24.1 km/h 86 % 0.00 in /  0 mm 0 W/m2
07:14 35.4 °F /  1.9 °C 31.6 °F /  -0.2 °C 29.47 in /  997.9 hPa WNW 9.0 mph /  14.5 km/h 14.0 mph /  22.5 km/h 86 % 0.00 in /  0 mm 0 W/m2
07:15 35.4 °F /  1.9 °C 31.6 °F /  -0.2 °C 29.47 in /  997.9 hPa WNW 10.0 mph /  16.1 km/h 15.0 mph /  24.1 km/h 86 % 0.00 in /  0 mm 0 W/m2
07:16 35.4 °F /  1.9 °C 31.6 °F /  -0.2 °C 29.47 in /  997.9 hPa WNW 10.0 mph /  16.1 km/h 16.0 mph /  25.7 km/h 86 % 0.00 in /  0 mm 0 W/m2
07:21 35.4 °F /  1.9 °C 31.6 °F /  -0.2 °C 29.47 in /  997.9 hPa WNW 11.0 mph /  17.7 km/h 18.0 mph /  29 km/h 86 % 0.00 in /  0 mm 0 W/m2
07:22 35.4 °F /  1.9 °C 31.6 °F /  -0.2 °C 29.47 in /  997.9 hPa WNW 12.0 mph /  19.3 km/h 18.0 mph /  29 km/h 86 % 0.00 in /  0 mm 0 W/m2
07:27 35.4 °F /  1.9 °C 31.9 °F /  -0.1 °C 29.47 in /  997.9 hPa West 11.0 mph /  17.7 km/h 16.0 mph /  25.7 km/h 87 % 0.00 in /  0 mm 0 W/m2
07:32 35.4 °F /  1.9 °C 31.6 °F /  -0.2 °C 29.47 in /  997.9 hPa West 9.0 mph /  14.5 km/h 14.0 mph /  22.5 km/h 86 % 0.00 in /  0 mm 0 W/m2
07:39 35.4 °F /  1.9 °C 31.6 °F /  -0.2 °C 29.47 in /  997.9 hPa WNW 10.0 mph /  16.1 km/h 14.0 mph /  22.5 km/h 86 % 0.00 in /  0 mm 0 W/m2
07:43 35.4 °F /  1.9 °C 31.6 °F /  -0.2 °C 29.47 in /  997.9 hPa WNW 9.0 mph /  14.5 km/h 14.0 mph /  22.5 km/h 86 % 0.00 in /  0 mm 0 W/m2
07:44 35.4 °F /  1.9 °C 31.6 °F /  -0.2 °C 29.47 in /  997.9 hPa WNW 9.0 mph /  14.5 km/h 15.0 mph /  24.1 km/h 86 % 0.00 in /  0 mm 0 W/m2
07:49 35.4 °F /  1.9 °C 31.6 °F /  -0.2 °C 29.47 in /  997.9 hPa West 10.0 mph /  16.1 km/h 15.0 mph /  24.1 km/h 86 % 0.00 in /  0 mm 0 W/m2
07:50 35.4 °F /  1.9 °C 31.6 °F /  -0.2 °C 29.47 in /  997.9 hPa WNW 10.0 mph /  16.1 km/h 15.0 mph /  24.1 km/h 86 % 0.00 in /  0 mm 0 W/m2
07:54 35.4 °F /  1.9 °C 31.6 °F /  -0.2 °C 29.47 in /  997.9 hPa WNW 8.0 mph /  12.9 km/h 13.0 mph /  20.9 km/h 86 % 0.00 in /  0 mm 0 W/m2
07:57 35.4 °F /  1.9 °C 31.6 °F /  -0.2 °C 29.48 in /  998.2 hPa WNW 9.0 mph /  14.5 km/h 15.0 mph /  24.1 km/h 86 % 0.00 in /  0 mm 0 W/m2
08:01 35.4 °F /  1.9 °C 31.6 °F /  -0.2 °C 29.48 in /  998.2 hPa WNW 11.0 mph /  17.7 km/h 19.0 mph /  30.6 km/h 86 % 0.00 in /  0 mm 0 W/m2
08:02 35.4 °F /  1.9 °C 31.6 °F /  -0.2 °C 29.48 in /  998.2 hPa WNW 12.0 mph /  19.3 km/h 19.0 mph /  30.6 km/h 86 % 0.00 in /  0 mm 0 W/m2
08:07 35.6 °F /  2 °C 31.8 °F /  -0.1 °C 29.48 in /  998.2 hPa West 9.0 mph /  14.5 km/h 14.0 mph /  22.5 km/h 86 % 0.00 in /  0 mm 0 W/m2
08:08 35.6 °F /  2 °C 31.8 °F /  -0.1 °C 29.48 in /  998.2 hPa West 8.0 mph /  12.9 km/h 13.0 mph /  20.9 km/h 86 % 0.00 in /  0 mm 0 W/m2
08:13 35.4 °F /  1.9 °C 31.6 °F /  -0.2 °C 29.48 in /  998.2 hPa West 8.0 mph /  12.9 km/h 12.0 mph /  19.3 km/h 86 % 0.00 in /  0 mm 0 W/m2
08:16 35.4 °F /  1.9 °C 31.6 °F /  -0.2 °C 29.48 in /  998.2 hPa West 6.0 mph /  9.7 km/h 10.0 mph /  16.1 km/h 86 % 0.00 in /  0 mm 5 W/m2
08:21 35.2 °F /  1.8 °C 31.5 °F /  -0.3 °C 29.48 in /  998.2 hPa West 7.0 mph /  11.3 km/h 16.0 mph /  25.7 km/h 86 % 0.00 in /  0 mm 5 W/m2
08:24 35.2 °F /  1.8 °C 31.5 °F /  -0.3 °C 29.48 in /  998.2 hPa WNW 9.0 mph /  14.5 km/h 13.0 mph /  20.9 km/h 86 % 0.00 in /  0 mm 7 W/m2
08:26 35.2 °F /  1.8 °C 31.5 °F /  -0.3 °C 29.48 in /  998.2 hPa WNW 10.0 mph /  16.1 km/h 14.0 mph /  22.5 km/h 86 % 0.00 in /  0 mm 7 W/m2
08:27 35.2 °F /  1.8 °C 31.5 °F /  -0.3 °C 29.48 in /  998.2 hPa WNW 10.0 mph /  16.1 km/h 16.0 mph /  25.7 km/h 86 % 0.00 in /  0 mm 7 W/m2
08:32 35.4 °F /  1.9 °C 31.6 °F /  -0.2 °C 29.48 in /  998.2 hPa WNW 11.0 mph /  17.7 km/h 16.0 mph /  25.7 km/h 86 % 0.00 in /  0 mm 9 W/m2
08:34 35.6 °F /  2 °C 31.8 °F /  -0.1 °C 29.48 in /  998.2 hPa WNW 11.0 mph /  17.7 km/h 16.0 mph /  25.7 km/h 86 % 0.00 in /  0 mm 11 W/m2
08:39 35.8 °F /  2.1 °C 31.7 °F /  -0.2 °C 29.48 in /  998.2 hPa WNW 11.0 mph /  17.7 km/h 16.0 mph /  25.7 km/h 85 % 0.00 in /  0 mm 12 W/m2
08:44 36.0 °F /  2.2 °C 31.9 °F /  -0.1 °C 29.48 in /  998.2 hPa WNW 12.0 mph /  19.3 km/h 18.0 mph /  29 km/h 85 % 0.00 in /  0 mm 14 W/m2
08:49 36.0 °F /  2.2 °C 31.9 °F /  -0.1 °C 29.48 in /  998.2 hPa WNW 11.0 mph /  17.7 km/h 16.0 mph /  25.7 km/h 85 % 0.00 in /  0 mm 16 W/m2
08:50 36.1 °F /  2.3 °C 31.8 °F /  -0.1 °C 29.48 in /  998.2 hPa WNW 11.0 mph /  17.7 km/h 15.0 mph /  24.1 km/h 84 % 0.00 in /  0 mm 16 W/m2
08:55 36.1 °F /  2.3 °C 31.8 °F /  -0.1 °C 29.48 in /  998.2 hPa WNW 11.0 mph /  17.7 km/h 16.0 mph /  25.7 km/h 84 % 0.00 in /  0 mm 19 W/m2
09:00 36.1 °F /  2.3 °C 31.8 °F /  -0.1 °C 29.48 in /  998.2 hPa WNW 11.0 mph /  17.7 km/h 19.0 mph /  30.6 km/h 84 % 0.00 in /  0 mm 21 W/m2
09:02 36.3 °F /  2.4 °C 31.9 °F /  -0.1 °C 29.48 in /  998.2 hPa WNW 12.0 mph /  19.3 km/h 23.0 mph /  37 km/h 84 % 0.00 in /  0 mm 21 W/m2
09:03 36.3 °F /  2.4 °C 31.9 °F /  -0.1 °C 29.48 in /  998.2 hPa WNW 12.0 mph /  19.3 km/h 23.0 mph /  37 km/h 84 % 0.00 in /  0 mm 21 W/m2
09:08 36.3 °F /  2.4 °C 31.9 °F /  -0.1 °C 29.48 in /  998.2 hPa WNW 13.0 mph /  20.9 km/h 20.0 mph /  32.2 km/h 84 % 0.00 in /  0 mm 23 W/m2
09:11 36.7 °F /  2.6 °C 32.3 °F /  0.2 °C 29.49 in /  998.5 hPa WNW 12.0 mph /  19.3 km/h 20.0 mph /  32.2 km/h 84 % 0.00 in /  0 mm 25 W/m2
09:16 36.7 °F /  2.6 °C 32.3 °F /  0.2 °C 29.49 in /  998.5 hPa WNW 11.0 mph /  17.7 km/h 18.0 mph /  29 km/h 84 % 0.00 in /  0 mm 28 W/m2
09:21 36.9 °F /  2.7 °C 32.5 °F /  0.3 °C 29.49 in /  998.5 hPa WNW 11.0 mph /  17.7 km/h 16.0 mph /  25.7 km/h 84 % 0.00 in /  0 mm 28 W/m2
09:22 36.9 °F /  2.7 °C 32.5 °F /  0.3 °C 29.49 in /  998.5 hPa WNW 10.0 mph /  16.1 km/h 16.0 mph /  25.7 km/h 84 % 0.00 in /  0 mm 28 W/m2
09:27 36.9 °F /  2.7 °C 32.5 °F /  0.3 °C 29.49 in /  998.5 hPa WNW 11.0 mph /  17.7 km/h 16.0 mph /  25.7 km/h 84 % 0.00 in /  0 mm 33 W/m2
09:32 37.0 °F /  2.8 °C 32.7 °F /  0.4 °C 29.49 in /  998.5 hPa WNW 10.0 mph /  16.1 km/h 14.0 mph /  22.5 km/h 84 % 0.00 in /  0 mm 107 W/m2
09:36 37.0 °F /  2.8 °C 32.7 °F /  0.4 °C 29.50 in /  998.9 hPa West 7.0 mph /  11.3 km/h 14.0 mph /  22.5 km/h 84 % 0.00 in /  0 mm 111 W/m2
09:40 37.0 °F /  2.8 °C 32.7 °F /  0.4 °C 29.50 in /  998.9 hPa West 8.0 mph /  12.9 km/h 11.0 mph /  17.7 km/h 84 % 0.00 in /  0 mm 120 W/m2
09:45 37.0 °F /  2.8 °C 32.7 °F /  0.4 °C 29.50 in /  998.9 hPa West 10.0 mph /  16.1 km/h 18.0 mph /  29 km/h 84 % 0.00 in /  0 mm 128 W/m2
09:46 37.0 °F /  2.8 °C 32.7 °F /  0.4 °C 29.50 in /  998.9 hPa WNW 9.0 mph /  14.5 km/h 18.0 mph /  29 km/h 84 % 0.00 in /  0 mm 130 W/m2
09:51 37.4 °F /  3 °C 33.0 °F /  0.6 °C 29.50 in /  998.9 hPa West 8.0 mph /  12.9 km/h 12.0 mph /  19.3 km/h 84 % 0.00 in /  0 mm 137 W/m2
09:52 37.6 °F /  3.1 °C 33.2 °F /  0.7 °C 29.50 in /  998.9 hPa West 8.0 mph /  12.9 km/h 11.0 mph /  17.7 km/h 84 % 0.00 in /  0 mm 141 W/m2
09:57 37.8 °F /  3.2 °C 33.4 °F /  0.8 °C 29.50 in /  998.9 hPa WNW 11.0 mph /  17.7 km/h 15.0 mph /  24.1 km/h 84 % 0.00 in /  0 mm 148 W/m2
09:59 37.9 °F /  3.3 °C 33.2 °F /  0.7 °C 29.50 in /  998.9 hPa West 12.0 mph /  19.3 km/h 16.0 mph /  25.7 km/h 83 % 0.00 in /  0 mm 151 W/m2
10:04 38.1 °F /  3.4 °C 33.4 °F /  0.8 °C 29.50 in /  998.9 hPa WNW 12.0 mph /  19.3 km/h 16.0 mph /  25.7 km/h 83 % 0.00 in /  0 mm 160 W/m2
10:07 38.3 °F /  3.5 °C 33.3 °F /  0.7 °C 29.50 in /  998.9 hPa WNW 9.0 mph /  14.5 km/h 14.0 mph /  22.5 km/h 82 % 0.00 in /  0 mm 160 W/m2
10:12 38.5 °F /  3.6 °C 33.5 °F /  0.8 °C 29.51 in /  999.2 hPa WNW 11.0 mph /  17.7 km/h 16.0 mph /  25.7 km/h 82 % 0.00 in /  0 mm 167 W/m2
10:17 38.7 °F /  3.7 °C 33.3 °F /  0.7 °C 29.51 in /  999.2 hPa WNW 10.0 mph /  16.1 km/h 15.0 mph /  24.1 km/h 81 % 0.00 in /  0 mm 172 W/m2
10:22 38.8 °F /  3.8 °C 33.2 °F /  0.7 °C 29.51 in /  999.2 hPa WNW 12.0 mph /  19.3 km/h 19.0 mph /  30.6 km/h 80 % 0.00 in /  0 mm 179 W/m2
10:24 38.8 °F /  3.8 °C 33.2 °F /  0.7 °C 29.51 in /  999.2 hPa WNW 12.0 mph /  19.3 km/h 19.0 mph /  30.6 km/h 80 % 0.00 in /  0 mm 181 W/m2
10:25 39.0 °F /  3.9 °C 33.4 °F /  0.8 °C 29.51 in /  999.2 hPa WNW 11.0 mph /  17.7 km/h 18.0 mph /  29 km/h 80 % 0.00 in /  0 mm 183 W/m2
10:30 39.0 °F /  3.9 °C 33.4 °F /  0.8 °C 29.51 in /  999.2 hPa West 9.0 mph /  14.5 km/h 12.0 mph /  19.3 km/h 80 % 0.00 in /  0 mm 186 W/m2
10:35 39.0 °F /  3.9 °C 33.7 °F /  0.9 °C 29.51 in /  999.2 hPa West 10.0 mph /  16.1 km/h 15.0 mph /  24.1 km/h 81 % 0.00 in /  0 mm 190 W/m2
10:38 39.0 °F /  3.9 °C 33.7 °F /  0.9 °C 29.51 in /  999.2 hPa WNW 9.0 mph /  14.5 km/h 18.0 mph /  29 km/h 81 % 0.00 in /  0 mm 195 W/m2
10:43 39.2 °F /  4 °C 33.9 °F /  1.1 °C 29.51 in /  999.2 hPa WNW 13.0 mph /  20.9 km/h 21.0 mph /  33.8 km/h 81 % 0.00 in /  0 mm 200 W/m2
10:45 39.4 °F /  4.1 °C 33.7 °F /  0.9 °C 29.51 in /  999.2 hPa West 13.0 mph /  20.9 km/h 23.0 mph /  37 km/h 80 % 0.00 in /  0 mm 206 W/m2
10:46 39.4 °F /  4.1 °C 33.7 °F /  0.9 °C 29.51 in /  999.2 hPa West 14.0 mph /  22.5 km/h 23.0 mph /  37 km/h 80 % 0.00 in /  0 mm 206 W/m2
10:50 39.6 °F /  4.2 °C 33.9 °F /  1.1 °C 29.51 in /  999.2 hPa West 13.0 mph /  20.9 km/h 24.0 mph /  38.6 km/h 80 % 0.00 in /  0 mm 211 W/m2
10:54 39.6 °F /  4.2 °C 33.9 °F /  1.1 °C 29.51 in /  999.2 hPa West 11.0 mph /  17.7 km/h 20.0 mph /  32.2 km/h 80 % 0.00 in /  0 mm 214 W/m2
10:59 39.7 °F /  4.3 °C 33.8 °F /  1 °C 29.51 in /  999.2 hPa WNW 11.0 mph /  17.7 km/h 16.0 mph /  25.7 km/h 79 % 0.00 in /  0 mm 220 W/m2
11:00 39.9 °F /  4.4 °C 33.9 °F /  1.1 °C 29.51 in /  999.2 hPa WNW 13.0 mph /  20.9 km/h 21.0 mph /  33.8 km/h 79 % 0.00 in /  0 mm 220 W/m2
11:04 39.9 °F /  4.4 °C 33.9 °F /  1.1 °C 29.51 in /  999.2 hPa WNW 12.0 mph /  19.3 km/h 19.0 mph /  30.6 km/h 79 % 0.00 in /  0 mm 223 W/m2
11:09 40.3 °F /  4.6 °C 34.0 °F /  1.1 °C 29.52 in /  999.5 hPa WNW 13.0 mph /  20.9 km/h 24.0 mph /  38.6 km/h 78 % 0.00 in /  0 mm 225 W/m2
11:10 40.3 °F /  4.6 °C 34.0 °F /  1.1 °C 29.51 in /  999.2 hPa WNW 14.0 mph /  22.5 km/h 24.0 mph /  38.6 km/h 78 % 0.00 in /  0 mm 225 W/m2
11:11 40.3 °F /  4.6 °C 34.0 °F /  1.1 °C 29.51 in /  999.2 hPa WNW 13.0 mph /  20.9 km/h 24.0 mph /  38.6 km/h 78 % 0.00 in /  0 mm 225 W/m2
11:16 40.5 °F /  4.7 °C 34.1 °F /  1.2 °C 29.51 in /  999.2 hPa WNW 13.0 mph /  20.9 km/h 20.0 mph /  32.2 km/h 78 % 0.00 in /  0 mm 230 W/m2
11:21 40.6 °F /  4.8 °C 34.6 °F /  1.4 °C 29.52 in /  999.5 hPa WNW 12.0 mph /  19.3 km/h 18.0 mph /  29 km/h 79 % 0.00 in /  0 mm 232 W/m2
11:25 40.8 °F /  4.9 °C 34.8 °F /  1.6 °C 29.52 in /  999.5 hPa West 12.0 mph /  19.3 km/h 20.0 mph /  32.2 km/h 79 % 0.00 in /  0 mm 234 W/m2
11:30 40.8 °F /  4.9 °C 34.8 °F /  1.6 °C 29.52 in /  999.5 hPa West 13.0 mph /  20.9 km/h 20.0 mph /  32.2 km/h 79 % 0.00 in /  0 mm 237 W/m2
11:31 40.8 °F /  4.9 °C 34.8 °F /  1.6 °C 29.51 in /  999.2 hPa WNW 14.0 mph /  22.5 km/h 22.0 mph /  35.4 km/h 79 % 0.00 in /  0 mm 239 W/m2
11:33 40.8 °F /  4.9 °C 34.8 °F /  1.6 °C 29.52 in /  999.5 hPa WNW 14.0 mph /  22.5 km/h 24.0 mph /  38.6 km/h 79 % 0.00 in /  0 mm 239 W/m2
11:38 40.8 °F /  4.9 °C 34.8 °F /  1.6 °C 29.52 in /  999.5 hPa WNW 13.0 mph /  20.9 km/h 22.0 mph /  35.4 km/h 79 % 0.00 in /  0 mm 243 W/m2
11:42 40.8 °F /  4.9 °C 34.8 °F /  1.6 °C 29.52 in /  999.5 hPa WNW 14.0 mph /  22.5 km/h 23.0 mph /  37 km/h 79 % 0.00 in /  0 mm 243 W/m2
11:43 40.8 °F /  4.9 °C 34.5 °F /  1.4 °C 29.52 in /  999.5 hPa WNW 16.0 mph /  25.7 km/h 25.0 mph /  40.2 km/h 78 % 0.00 in /  0 mm 241 W/m2
11:48 40.8 °F /  4.9 °C 34.5 °F /  1.4 °C 29.52 in /  999.5 hPa WNW 16.0 mph /  25.7 km/h 22.0 mph /  35.4 km/h 78 % 0.00 in /  0 mm 243 W/m2
11:53 41.0 °F /  5 °C 34.7 °F /  1.5 °C 29.52 in /  999.5 hPa WNW 15.0 mph /  24.1 km/h 21.0 mph /  33.8 km/h 78 % 0.00 in /  0 mm 243 W/m2
11:58 41.2 °F /  5.1 °C 34.8 °F /  1.6 °C 29.52 in /  999.5 hPa West 14.0 mph /  22.5 km/h 20.0 mph /  32.2 km/h 78 % 0.00 in /  0 mm 244 W/m2
12:00 41.2 °F /  5.1 °C 34.8 °F /  1.6 °C 29.52 in /  999.5 hPa West 13.0 mph /  20.9 km/h 19.0 mph /  30.6 km/h 78 % 0.00 in /  0 mm 241 W/m2
12:04 41.2 °F /  5.1 °C 34.5 °F /  1.4 °C 29.52 in /  999.5 hPa WNW 14.0 mph /  22.5 km/h 25.0 mph /  40.2 km/h 77 % 0.00 in /  0 mm 244 W/m2
12:09 41.4 °F /  5.2 °C 34.4 °F /  1.3 °C 29.52 in /  999.5 hPa West 14.0 mph /  22.5 km/h 22.0 mph /  35.4 km/h 76 % 0.00 in /  0 mm 241 W/m2
12:14 41.4 °F /  5.2 °C 34.4 °F /  1.3 °C 29.52 in /  999.5 hPa West 13.0 mph /  20.9 km/h 22.0 mph /  35.4 km/h 76 % 0.00 in /  0 mm 241 W/m2
12:15 41.4 °F /  5.2 °C 34.4 °F /  1.3 °C 29.52 in /  999.5 hPa WNW 13.0 mph /  20.9 km/h 22.0 mph /  35.4 km/h 76 % 0.00 in /  0 mm 243 W/m2
12:16 41.5 °F /  5.3 °C 34.9 °F /  1.6 °C 29.52 in /  999.5 hPa West 13.0 mph /  20.9 km/h 20.0 mph /  32.2 km/h 77 % 0.00 in /  0 mm 243 W/m2
12:21 41.5 °F /  5.3 °C 34.9 °F /  1.6 °C 29.52 in /  999.5 hPa WNW 13.0 mph /  20.9 km/h 22.0 mph /  35.4 km/h 77 % 0.00 in /  0 mm 241 W/m2
12:26 41.5 °F /  5.3 °C 34.9 °F /  1.6 °C 29.52 in /  999.5 hPa West 11.0 mph /  17.7 km/h 20.0 mph /  32.2 km/h 77 % 0.00 in /  0 mm 241 W/m2
12:31 41.5 °F /  5.3 °C 34.9 °F /  1.6 °C 29.52 in /  999.5 hPa WNW 15.0 mph /  24.1 km/h 22.0 mph /  35.4 km/h 77 % 0.00 in /  0 mm 237 W/m2
12:36 41.7 °F /  5.4 °C 35.4 °F /  1.9 °C 29.52 in /  999.5 hPa West 11.0 mph /  17.7 km/h 21.0 mph /  33.8 km/h 78 % 0.00 in /  0 mm 241 W/m2
12:41 41.7 °F /  5.4 °C 35.0 °F /  1.7 °C 29.52 in /  999.5 hPa West 9.0 mph /  14.5 km/h 16.0 mph /  25.7 km/h 77 % 0.00 in /  0 mm 237 W/m2
12:42 41.7 °F /  5.4 °C 35.0 °F /  1.7 °C 29.52 in /  999.5 hPa WNW 10.0 mph /  16.1 km/h 16.0 mph /  25.7 km/h 77 % 0.00 in /  0 mm 236 W/m2
12:45 41.7 °F /  5.4 °C 35.0 °F /  1.7 °C 29.52 in /  999.5 hPa West 14.0 mph /  22.5 km/h 22.0 mph /  35.4 km/h 77 % 0.00 in /  0 mm 237 W/m2
12:50 41.7 °F /  5.4 °C 34.4 °F /  1.3 °C 29.52 in /  999.5 hPa WNW 11.0 mph /  17.7 km/h 16.0 mph /  25.7 km/h 75 % 0.00 in /  0 mm 234 W/m2
12:51 41.7 °F /  5.4 °C 34.4 °F /  1.3 °C 29.52 in /  999.5 hPa WNW 11.0 mph /  17.7 km/h 16.0 mph /  25.7 km/h 75 % 0.00 in /  0 mm 232 W/m2
12:56 41.7 °F /  5.4 °C 34.0 °F /  1.1 °C 29.52 in /  999.5 hPa West 14.0 mph /  22.5 km/h 21.0 mph /  33.8 km/h 74 % 0.00 in /  0 mm 230 W/m2
12:57 41.7 °F /  5.4 °C 34.0 °F /  1.1 °C 29.52 in /  999.5 hPa West 14.0 mph /  22.5 km/h 21.0 mph /  33.8 km/h 74 % 0.00 in /  0 mm 230 W/m2
13:02 41.7 °F /  5.4 °C 34.0 °F /  1.1 °C 29.52 in /  999.5 hPa West 13.0 mph /  20.9 km/h 18.0 mph /  29 km/h 74 % 0.00 in /  0 mm 223 W/m2
13:04 41.7 °F /  5.4 °C 34.0 °F /  1.1 °C 29.52 in /  999.5 hPa West 12.0 mph /  19.3 km/h 21.0 mph /  33.8 km/h 74 % 0.00 in /  0 mm 223 W/m2
13:09 41.7 °F /  5.4 °C 34.0 °F /  1.1 °C 29.53 in /  999.9 hPa WNW 13.0 mph /  20.9 km/h 22.0 mph /  35.4 km/h 74 % 0.00 in /  0 mm 220 W/m2
13:10 41.7 °F /  5.4 °C 34.0 °F /  1.1 °C 29.53 in /  999.9 hPa West 13.0 mph /  20.9 km/h 22.0 mph /  35.4 km/h 74 % 0.00 in /  0 mm 220 W/m2
13:11 41.7 °F /  5.4 °C 34.0 °F /  1.1 °C 29.53 in /  999.9 hPa West 12.0 mph /  19.3 km/h 20.0 mph /  32.2 km/h 74 % 0.00 in /  0 mm 220 W/m2
13:16 41.7 °F /  5.4 °C 34.0 °F /  1.1 °C 29.54 in /  1000.2 hPa West 13.0 mph /  20.9 km/h 19.0 mph /  30.6 km/h 74 % 0.00 in /  0 mm 214 W/m2
13:17 41.7 °F /  5.4 °C 34.0 °F /  1.1 °C 29.53 in /  999.9 hPa West 12.0 mph /  19.3 km/h 19.0 mph /  30.6 km/h 74 % 0.00 in /  0 mm 214 W/m2
13:22 41.7 °F /  5.4 °C 34.0 °F /  1.1 °C 29.54 in /  1000.2 hPa West 13.0 mph /  20.9 km/h 20.0 mph /  32.2 km/h 74 % 0.00 in /  0 mm 209 W/m2
13:27 41.5 °F /  5.3 °C 34.2 °F /  1.2 °C 29.53 in /  999.9 hPa WNW 14.0 mph /  22.5 km/h 22.0 mph /  35.4 km/h 75 % 0.00 in /  0 mm 202 W/m2
13:31 41.5 °F /  5.3 °C 34.2 °F /  1.2 °C 29.54 in /  1000.2 hPa West 12.0 mph /  19.3 km/h 23.0 mph /  37 km/h 75 % 0.00 in /  0 mm 200 W/m2
13:34 41.5 °F /  5.3 °C 34.2 °F /  1.2 °C 29.53 in /  999.9 hPa West 15.0 mph /  24.1 km/h 25.0 mph /  40.2 km/h 75 % 0.00 in /  0 mm 193 W/m2
13:38 41.5 °F /  5.3 °C 34.2 °F /  1.2 °C 29.54 in /  1000.2 hPa WNW 15.0 mph /  24.1 km/h 23.0 mph /  37 km/h 75 % 0.00 in /  0 mm 190 W/m2
13:41 41.5 °F /  5.3 °C 34.2 °F /  1.2 °C 29.53 in /  999.9 hPa WNW 14.0 mph /  22.5 km/h 22.0 mph /  35.4 km/h 75 % 0.00 in /  0 mm 186 W/m2
13:46 41.5 °F /  5.3 °C 34.2 °F /  1.2 °C 29.53 in /  999.9 hPa West 14.0 mph /  22.5 km/h 21.0 mph /  33.8 km/h 75 % 0.00 in /  0 mm 181 W/m2
13:48 41.5 °F /  5.3 °C 33.9 °F /  1.1 °C 29.53 in /  999.9 hPa WNW 13.0 mph /  20.9 km/h 19.0 mph /  30.6 km/h 74 % 0.00 in /  0 mm 178 W/m2
13:53 41.5 °F /  5.3 °C 34.2 °F /  1.2 °C 29.54 in /  1000.2 hPa WNW 13.0 mph /  20.9 km/h 19.0 mph /  30.6 km/h 75 % 0.00 in /  0 mm 172 W/m2
13:55 41.5 °F /  5.3 °C 34.2 °F /  1.2 °C 29.54 in /  1000.2 hPa WNW 13.0 mph /  20.9 km/h 22.0 mph /  35.4 km/h 75 % 0.00 in /  0 mm 171 W/m2
14:01 41.5 °F /  5.3 °C 33.9 °F /  1.1 °C 29.54 in /  1000.2 hPa WNW 13.0 mph /  20.9 km/h 25.0 mph /  40.2 km/h 74 % 0.00 in /  0 mm 162 W/m2
14:02 41.5 °F /  5.3 °C 33.9 °F /  1.1 °C 29.54 in /  1000.2 hPa WNW 12.0 mph /  19.3 km/h 18.0 mph /  29 km/h 74 % 0.00 in /  0 mm 162 W/m2
14:07 41.4 °F /  5.2 °C 33.7 °F /  0.9 °C 29.54 in /  1000.2 hPa WNW 13.0 mph /  20.9 km/h 19.0 mph /  30.6 km/h 74 % 0.00 in /  0 mm 151 W/m2
14:08 41.5 °F /  5.3 °C 33.9 °F /  1.1 °C 29.55 in /  1000.6 hPa WNW 14.0 mph /  22.5 km/h 23.0 mph /  37 km/h 74 % 0.00 in /  0 mm 149 W/m2
14:13 41.5 °F /  5.3 °C 34.2 °F /  1.2 °C 29.55 in /  1000.6 hPa WNW 12.0 mph /  19.3 km/h 19.0 mph /  30.6 km/h 75 % 0.00 in /  0 mm 146 W/m2
14:14 41.5 °F /  5.3 °C 33.9 °F /  1.1 °C 29.55 in /  1000.6 hPa West 14.0 mph /  22.5 km/h 23.0 mph /  37 km/h 74 % 0.00 in /  0 mm 146 W/m2
14:19 41.4 °F /  5.2 °C 33.7 °F /  0.9 °C 29.55 in /  1000.6 hPa WNW 13.0 mph /  20.9 km/h 20.0 mph /  32.2 km/h 74 % 0.00 in /  0 mm 134 W/m2
14:24 41.4 °F /  5.2 °C 33.7 °F /  0.9 °C 29.55 in /  1000.6 hPa WNW 11.0 mph /  17.7 km/h 19.0 mph /  30.6 km/h 74 % 0.00 in /  0 mm 125 W/m2
14:25 41.4 °F /  5.2 °C 33.7 °F /  0.9 °C 29.55 in /  1000.6 hPa WNW 11.0 mph /  17.7 km/h 19.0 mph /  30.6 km/h 74 % 0.00 in /  0 mm 125 W/m2
14:29 41.4 °F /  5.2 °C 34.0 °F /  1.1 °C 29.55 in /  1000.6 hPa WNW 11.0 mph /  17.7 km/h 15.0 mph /  24.1 km/h 75 % 0.00 in /  0 mm 120 W/m2
14:31 41.4 °F /  5.2 °C 34.0 °F /  1.1 °C 29.55 in /  1000.6 hPa WNW 11.0 mph /  17.7 km/h 18.0 mph /  29 km/h 75 % 0.00 in /  0 mm 107 W/m2
14:36 41.4 °F /  5.2 °C 34.0 °F /  1.1 °C 29.55 in /  1000.6 hPa WNW 11.0 mph /  17.7 km/h 14.0 mph /  22.5 km/h 75 % 0.00 in /  0 mm 74 W/m2
14:39 41.2 °F /  5.1 °C 33.9 °F /  1.1 °C 29.55 in /  1000.6 hPa WNW 9.0 mph /  14.5 km/h 13.0 mph /  20.9 km/h 75 % 0.00 in /  0 mm 102 W/m2
14:44 41.2 °F /  5.1 °C 34.2 °F /  1.2 °C 29.55 in /  1000.6 hPa WNW 10.0 mph /  16.1 km/h 15.0 mph /  24.1 km/h 76 % 0.00 in /  0 mm 76 W/m2
14:45 41.2 °F /  5.1 °C 34.2 °F /  1.2 °C 29.55 in /  1000.6 hPa WNW 10.0 mph /  16.1 km/h 16.0 mph /  25.7 km/h 76 % 0.00 in /  0 mm 70 W/m2
14:50 40.6 °F /  4.8 °C 33.7 °F /  0.9 °C 29.55 in /  1000.6 hPa WNW 10.0 mph /  16.1 km/h 16.0 mph /  25.7 km/h 76 % 0.00 in /  0 mm 44 W/m2
14:53 40.5 °F /  4.7 °C 33.5 °F /  0.8 °C 29.55 in /  1000.6 hPa WNW 14.0 mph /  22.5 km/h 21.0 mph /  33.8 km/h 76 % 0.00 in /  0 mm 44 W/m2
14:54 40.5 °F /  4.7 °C 33.8 °F /  1 °C 29.55 in /  1000.6 hPa WNW 13.0 mph /  20.9 km/h 21.0 mph /  33.8 km/h 77 % 0.00 in /  0 mm 44 W/m2
14:59 40.1 °F /  4.5 °C 33.5 °F /  0.8 °C 29.55 in /  1000.6 hPa WNW 10.0 mph /  16.1 km/h 15.0 mph /  24.1 km/h 77 % 0.00 in /  0 mm 56 W/m2
15:00 40.1 °F /  4.5 °C 33.5 °F /  0.8 °C 29.56 in /  1000.9 hPa WNW 9.0 mph /  14.5 km/h 12.0 mph /  19.3 km/h 77 % 0.00 in /  0 mm 35 W/m2
15:05 39.7 °F /  4.3 °C 33.4 °F /  0.8 °C 29.56 in /  1000.9 hPa WNW 10.0 mph /  16.1 km/h 15.0 mph /  24.1 km/h 78 % 0.00 in /  0 mm 18 W/m2
15:08 39.7 °F /  4.3 °C 33.4 °F /  0.8 °C 29.56 in /  1000.9 hPa WNW 8.0 mph /  12.9 km/h 13.0 mph /  20.9 km/h 78 % 0.00 in /  0 mm 14 W/m2
15:13 39.4 °F /  4.1 °C 33.4 °F /  0.8 °C 29.56 in /  1000.9 hPa WNW 10.0 mph /  16.1 km/h 15.0 mph /  24.1 km/h 79 % 0.00 in /  0 mm 21 W/m2
15:15 39.4 °F /  4.1 °C 33.4 °F /  0.8 °C 29.56 in /  1000.9 hPa WNW 11.0 mph /  17.7 km/h 15.0 mph /  24.1 km/h 79 % 0.00 in /  0 mm 19 W/m2
15:20 39.4 °F /  4.1 °C 33.4 °F /  0.8 °C 29.56 in /  1000.9 hPa WNW 11.0 mph /  17.7 km/h 18.0 mph /  29 km/h 79 % 0.00 in /  0 mm 14 W/m2
15:23 39.0 °F /  3.9 °C 33.4 °F /  0.8 °C 29.57 in /  1001.2 hPa WNW 10.0 mph /  16.1 km/h 15.0 mph /  24.1 km/h 80 % 0.00 in /  0 mm 12 W/m2
15:26 39.0 °F /  3.9 °C 33.4 °F /  0.8 °C 29.56 in /  1000.9 hPa WNW 12.0 mph /  19.3 km/h 20.0 mph /  32.2 km/h 80 % 0.00 in /  0 mm 12 W/m2
15:31 38.8 °F /  3.8 °C 33.5 °F /  0.8 °C 29.57 in /  1001.2 hPa WNW 14.0 mph /  22.5 km/h 20.0 mph /  32.2 km/h 81 % 0.00 in /  0 mm 11 W/m2
15:34 38.8 °F /  3.8 °C 33.5 °F /  0.8 °C 29.57 in /  1001.2 hPa WNW 13.0 mph /  20.9 km/h 21.0 mph /  33.8 km/h 81 % 0.00 in /  0 mm 11 W/m2
15:39 38.5 °F /  3.6 °C 33.5 °F /  0.8 °C 29.57 in /  1001.2 hPa WNW 10.0 mph /  16.1 km/h 14.0 mph /  22.5 km/h 82 % 0.00 in /  0 mm 9 W/m2
15:41 38.5 °F /  3.6 °C 33.5 °F /  0.8 °C 29.57 in /  1001.2 hPa WNW 10.0 mph /  16.1 km/h 16.0 mph /  25.7 km/h 82 % 0.00 in /  0 mm 7 W/m2
15:46 38.1 °F /  3.4 °C 33.1 °F /  0.6 °C 29.57 in /  1001.2 hPa WNW 10.0 mph /  16.1 km/h 15.0 mph /  24.1 km/h 82 % 0.00 in /  0 mm 7 W/m2
15:51 37.9 °F /  3.3 °C 32.9 °F /  0.5 °C 29.57 in /  1001.2 hPa WNW 8.0 mph /  12.9 km/h 12.0 mph /  19.3 km/h 82 % 0.00 in /  0 mm 5 W/m2
15:55 37.8 °F /  3.2 °C 32.8 °F /  0.4 °C 29.57 in /  1001.2 hPa WNW 8.0 mph /  12.9 km/h 12.0 mph /  19.3 km/h 82 % 0.00 in /  0 mm 5 W/m2
16:00 37.6 °F /  3.1 °C 32.6 °F /  0.3 °C 29.58 in /  1001.6 hPa WNW 7.0 mph /  11.3 km/h 11.0 mph /  17.7 km/h 82 % 0.00 in /  0 mm 0 W/m2
16:03 37.4 °F /  3 °C 32.4 °F /  0.2 °C 29.58 in /  1001.6 hPa WNW 8.0 mph /  12.9 km/h 13.0 mph /  20.9 km/h 82 % 0.00 in /  0 mm 0 W/m2
16:06 37.2 °F /  2.9 °C 31.9 °F /  -0.1 °C 29.58 in /  1001.6 hPa WNW 7.0 mph /  11.3 km/h 12.0 mph /  19.3 km/h 81 % 0.00 in /  0 mm 0 W/m2
16:11 37.2 °F /  2.9 °C 31.9 °F /  -0.1 °C 29.58 in /  1001.6 hPa West 8.0 mph /  12.9 km/h 13.0 mph /  20.9 km/h 81 % 0.00 in /  0 mm 0 W/m2
16:12 37.2 °F /  2.9 °C 31.9 °F /  -0.1 °C 29.58 in /  1001.6 hPa West 7.0 mph /  11.3 km/h 12.0 mph /  19.3 km/h 81 % 0.00 in /  0 mm 0 W/m2
16:15 37.0 °F /  2.8 °C 31.8 °F /  -0.1 °C 29.58 in /  1001.6 hPa WNW 8.0 mph /  12.9 km/h 13.0 mph /  20.9 km/h 81 % 0.00 in /  0 mm 0 W/m2
16:19 37.0 °F /  2.8 °C 31.8 °F /  -0.1 °C 29.58 in /  1001.6 hPa WNW 9.0 mph /  14.5 km/h 13.0 mph /  20.9 km/h 81 % 0.00 in /  0 mm 0 W/m2
16:22 37.0 °F /  2.8 °C 31.8 °F /  -0.1 °C 29.58 in /  1001.6 hPa WNW 9.0 mph /  14.5 km/h 13.0 mph /  20.9 km/h 81 % 0.00 in /  0 mm 0 W/m2
16:27 37.0 °F /  2.8 °C 31.8 °F /  -0.1 °C 29.58 in /  1001.6 hPa WNW 9.0 mph /  14.5 km/h 15.0 mph /  24.1 km/h 81 % 0.00 in /  0 mm 0 W/m2
16:28 37.0 °F /  2.8 °C 32.1 °F /  0.1 °C 29.58 in /  1001.6 hPa WNW 9.0 mph /  14.5 km/h 15.0 mph /  24.1 km/h 82 % 0.00 in /  0 mm 0 W/m2
16:30 37.0 °F /  2.8 °C 32.1 °F /  0.1 °C 29.58 in /  1001.6 hPa WNW 8.0 mph /  12.9 km/h 11.0 mph /  17.7 km/h 82 % 0.00 in /  0 mm 0 W/m2
16:35 37.0 °F /  2.8 °C 32.1 °F /  0.1 °C 29.58 in /  1001.6 hPa WNW 7.0 mph /  11.3 km/h 10.0 mph /  16.1 km/h 82 % 0.00 in /  0 mm 0 W/m2
16:36 37.0 °F /  2.8 °C 32.1 °F /  0.1 °C 29.58 in /  1001.6 hPa WNW 7.0 mph /  11.3 km/h 10.0 mph /  16.1 km/h 82 % 0.00 in /  0 mm 0 W/m2
16:40 37.0 °F /  2.8 °C 32.1 °F /  0.1 °C 29.58 in /  1001.6 hPa WNW 8.0 mph /  12.9 km/h 12.0 mph /  19.3 km/h 82 % 0.00 in /  0 mm 0 W/m2
16:41 37.0 °F /  2.8 °C 32.1 °F /  0.1 °C 29.58 in /  1001.6 hPa WNW 8.0 mph /  12.9 km/h 12.0 mph /  19.3 km/h 82 % 0.00 in /  0 mm 0 W/m2
16:46 36.9 °F /  2.7 °C 31.9 °F /  -0.1 °C 29.58 in /  1001.6 hPa WNW 7.0 mph /  11.3 km/h 11.0 mph /  17.7 km/h 82 % 0.00 in /  0 mm 0 W/m2
16:47 36.9 °F /  2.7 °C 32.2 °F /  0.1 °C 29.58 in /  1001.6 hPa WNW 7.0 mph /  11.3 km/h 11.0 mph /  17.7 km/h 83 % 0.00 in /  0 mm 0 W/m2
16:49 36.9 °F /  2.7 °C 32.2 °F /  0.1 °C 29.58 in /  1001.6 hPa WNW 8.0 mph /  12.9 km/h 14.0 mph /  22.5 km/h 83 % 0.00 in /  0 mm 0 W/m2
16:54 36.9 °F /  2.7 °C 32.2 °F /  0.1 °C 29.58 in /  1001.6 hPa WNW 5.0 mph /  8 km/h 9.0 mph /  14.5 km/h 83 % 0.00 in /  0 mm 0 W/m2
16:56 36.7 °F /  2.6 °C 32.0 °F /  0 °C 29.58 in /  1001.6 hPa WNW 6.0 mph /  9.7 km/h 9.0 mph /  14.5 km/h 83 % 0.00 in /  0 mm 0 W/m2
16:57 36.7 °F /  2.6 °C 32.3 °F /  0.2 °C 29.58 in /  1001.6 hPa WNW 6.0 mph /  9.7 km/h 10.0 mph /  16.1 km/h 84 % 0.00 in /  0 mm 0 W/m2
17:02 36.7 °F /  2.6 °C 32.3 °F /  0.2 °C 29.58 in /  1001.6 hPa NW 6.0 mph /  9.7 km/h 9.0 mph /  14.5 km/h 84 % 0.00 in /  0 mm 0 W/m2
17:07 36.5 °F /  2.5 °C 32.1 °F /  0.1 °C 29.59 in /  1001.9 hPa WNW 6.0 mph /  9.7 km/h 12.0 mph /  19.3 km/h 84 % 0.00 in /  0 mm 0 W/m2
17:09 36.5 °F /  2.5 °C 32.1 °F /  0.1 °C 29.59 in /  1001.9 hPa WNW 6.0 mph /  9.7 km/h 10.0 mph /  16.1 km/h 84 % 0.00 in /  0 mm 0 W/m2
17:13 36.5 °F /  2.5 °C 32.4 °F /  0.2 °C 29.59 in /  1001.9 hPa WNW 7.0 mph /  11.3 km/h 10.0 mph /  16.1 km/h 85 % 0.00 in /  0 mm 0 W/m2
17:18 36.5 °F /  2.5 °C 32.4 °F /  0.2 °C 29.59 in /  1001.9 hPa West 7.0 mph /  11.3 km/h 12.0 mph /  19.3 km/h 85 % 0.00 in /  0 mm 0 W/m2
17:19 36.5 °F /  2.5 °C 32.4 °F /  0.2 °C 29.59 in /  1001.9 hPa WNW 7.0 mph /  11.3 km/h 12.0 mph /  19.3 km/h 85 % 0.00 in /  0 mm 0 W/m2
17:24 36.7 °F /  2.6 °C 32.6 °F /  0.3 °C 29.59 in /  1001.9 hPa WNW 8.0 mph /  12.9 km/h 12.0 mph /  19.3 km/h 85 % 0.00 in /  0 mm 0 W/m2
17:29 36.7 °F /  2.6 °C 32.3 °F /  0.2 °C 29.59 in /  1001.9 hPa WNW 9.0 mph /  14.5 km/h 13.0 mph /  20.9 km/h 84 % 0.00 in /  0 mm 0 W/m2
17:30 36.7 °F /  2.6 °C 32.3 °F /  0.2 °C 29.59 in /  1001.9 hPa WNW 9.0 mph /  14.5 km/h 14.0 mph /  22.5 km/h 84 % 0.00 in /  0 mm 0 W/m2
17:35 36.7 °F /  2.6 °C 32.3 °F /  0.2 °C 29.59 in /  1001.9 hPa WNW 10.0 mph /  16.1 km/h 15.0 mph /  24.1 km/h 84 % 0.00 in /  0 mm 0 W/m2
17:37 36.9 °F /  2.7 °C 32.5 °F /  0.3 °C 29.59 in /  1001.9 hPa WNW 10.0 mph /  16.1 km/h 15.0 mph /  24.1 km/h 84 % 0.00 in /  0 mm 0 W/m2
17:38 36.9 °F /  2.7 °C 32.5 °F /  0.3 °C 29.59 in /  1001.9 hPa WNW 11.0 mph /  17.7 km/h 19.0 mph /  30.6 km/h 84 % 0.00 in /  0 mm 0 W/m2
17:43 36.9 °F /  2.7 °C 32.2 °F /  0.1 °C 29.60 in /  1002.3 hPa WNW 10.0 mph /  16.1 km/h 15.0 mph /  24.1 km/h 83 % 0.00 in /  0 mm 0 W/m2
17:44 36.9 °F /  2.7 °C 32.2 °F /  0.1 °C 29.60 in /  1002.3 hPa WNW 10.0 mph /  16.1 km/h 15.0 mph /  24.1 km/h 83 % 0.00 in /  0 mm 0 W/m2
17:45 36.9 °F /  2.7 °C 32.2 °F /  0.1 °C 29.60 in /  1002.3 hPa WNW 11.0 mph /  17.7 km/h 16.0 mph /  25.7 km/h 83 % 0.00 in /  0 mm 0 W/m2
17:50 37.0 °F /  2.8 °C 32.4 °F /  0.2 °C 29.60 in /  1002.3 hPa WNW 11.0 mph /  17.7 km/h 20.0 mph /  32.2 km/h 83 % 0.00 in /  0 mm 0 W/m2
17:51 37.0 °F /  2.8 °C 32.4 °F /  0.2 °C 29.60 in /  1002.3 hPa WNW 11.0 mph /  17.7 km/h 20.0 mph /  32.2 km/h 83 % 0.00 in /  0 mm 0 W/m2
17:56 37.0 °F /  2.8 °C 32.4 °F /  0.2 °C 29.60 in /  1002.3 hPa WNW 12.0 mph /  19.3 km/h 19.0 mph /  30.6 km/h 83 % 0.00 in /  0 mm 0 W/m2
17:57 37.2 °F /  2.9 °C 32.5 °F /  0.3 °C 29.60 in /  1002.3 hPa WNW 10.0 mph /  16.1 km/h 19.0 mph /  30.6 km/h 83 % 0.00 in /  0 mm 0 W/m2
18:02 37.2 °F /  2.9 °C 32.5 °F /  0.3 °C 29.60 in /  1002.3 hPa WNW 10.0 mph /  16.1 km/h 14.0 mph /  22.5 km/h 83 % 0.00 in /  0 mm 0 W/m2
18:06 37.2 °F /  2.9 °C 32.5 °F /  0.3 °C 29.60 in /  1002.3 hPa WNW 12.0 mph /  19.3 km/h 16.0 mph /  25.7 km/h 83 % 0.00 in /  0 mm 0 W/m2
18:09 37.2 °F /  2.9 °C 32.5 °F /  0.3 °C 29.60 in /  1002.3 hPa WNW 11.0 mph /  17.7 km/h 16.0 mph /  25.7 km/h 83 % 0.00 in /  0 mm 0 W/m2
18:14 37.2 °F /  2.9 °C 32.5 °F /  0.3 °C 29.60 in /  1002.3 hPa West 9.0 mph /  14.5 km/h 15.0 mph /  24.1 km/h 83 % 0.00 in /  0 mm 0 W/m2
18:15 37.2 °F /  2.9 °C 32.5 °F /  0.3 °C 29.60 in /  1002.3 hPa WNW 9.0 mph /  14.5 km/h 14.0 mph /  22.5 km/h 83 % 0.00 in /  0 mm 0 W/m2
18:20 37.0 °F /  2.8 °C 32.7 °F /  0.4 °C 29.61 in /  1002.6 hPa WNW 8.0 mph /  12.9 km/h 12.0 mph /  19.3 km/h 84 % 0.00 in /  0 mm 0 W/m2
18:21 37.0 °F /  2.8 °C 32.7 °F /  0.4 °C 29.60 in /  1002.3 hPa WNW 8.0 mph /  12.9 km/h 12.0 mph /  19.3 km/h 84 % 0.00 in /  0 mm 0 W/m2
18:23 36.9 °F /  2.7 °C 32.5 °F /  0.3 °C 29.60 in /  1002.3 hPa WNW 8.0 mph /  12.9 km/h 12.0 mph /  19.3 km/h 84 % 0.00 in /  0 mm 0 W/m2
18:28 36.9 °F /  2.7 °C 32.5 °F /  0.3 °C 29.60 in /  1002.3 hPa West 10.0 mph /  16.1 km/h 15.0 mph /  24.1 km/h 84 % 0.00 in /  0 mm 0 W/m2
18:30 36.7 °F /  2.6 °C 32.3 °F /  0.2 °C 29.60 in /  1002.3 hPa West 9.0 mph /  14.5 km/h 14.0 mph /  22.5 km/h 84 % 0.00 in /  0 mm 0 W/m2
18:33 36.7 °F /  2.6 °C 32.6 °F /  0.3 °C 29.60 in /  1002.3 hPa West 9.0 mph /  14.5 km/h 13.0 mph /  20.9 km/h 85 % 0.00 in /  0 mm 0 W/m2
18:36 36.7 °F /  2.6 °C 32.6 °F /  0.3 °C 29.60 in /  1002.3 hPa West 7.0 mph /  11.3 km/h 12.0 mph /  19.3 km/h 85 % 0.00 in /  0 mm 0 W/m2
18:41 36.5 °F /  2.5 °C 32.4 °F /  0.2 °C 29.60 in /  1002.3 hPa West 6.0 mph /  9.7 km/h 9.0 mph /  14.5 km/h 85 % 0.00 in /  0 mm 0 W/m2
18:46 36.3 °F /  2.4 °C 32.2 °F /  0.1 °C 29.60 in /  1002.3 hPa WNW 4.0 mph /  6.4 km/h 7.0 mph /  11.3 km/h 85 % 0.00 in /  0 mm 0 W/m2
18:47 36.1 °F /  2.3 °C 32.1 °F /  0.1 °C 29.60 in /  1002.3 hPa WNW 4.0 mph /  6.4 km/h 7.0 mph /  11.3 km/h 85 % 0.00 in /  0 mm 0 W/m2
18:49 36.1 °F /  2.3 °C 32.1 °F /  0.1 °C 29.60 in /  1002.3 hPa West 4.0 mph /  6.4 km/h 7.0 mph /  11.3 km/h 85 % 0.00 in /  0 mm 0 W/m2
18:54 35.8 °F /  2.1 °C 31.7 °F /  -0.2 °C 29.60 in /  1002.3 hPa WNW 3.0 mph /  4.8 km/h 6.0 mph /  9.7 km/h 85 % 0.00 in /  0 mm 0 W/m2
18:57 35.8 °F /  2.1 °C 32.0 °F /  0 °C 29.60 in /  1002.3 hPa West 3.0 mph /  4.8 km/h 5.0 mph /  8 km/h 86 % 0.00 in /  0 mm 0 W/m2
19:02 35.4 °F /  1.9 °C 31.6 °F /  -0.2 °C 29.60 in /  1002.3 hPa West 4.0 mph /  6.4 km/h 6.0 mph /  9.7 km/h 86 % 0.00 in /  0 mm 0 W/m2
19:07 35.2 °F /  1.8 °C 31.5 °F /  -0.3 °C 29.60 in /  1002.3 hPa West 4.0 mph /  6.4 km/h 7.0 mph /  11.3 km/h 86 % 0.00 in /  0 mm 0 W/m2
19:08 35.2 °F /  1.8 °C 31.5 °F /  -0.3 °C 29.60 in /  1002.3 hPa West 4.0 mph /  6.4 km/h 7.0 mph /  11.3 km/h 86 % 0.00 in /  0 mm 0 W/m2
19:13 35.1 °F /  1.7 °C 31.6 °F /  -0.2 °C 29.60 in /  1002.3 hPa West 4.0 mph /  6.4 km/h 7.0 mph /  11.3 km/h 87 % 0.00 in /  0 mm 0 W/m2
19:14 34.9 °F /  1.6 °C 31.4 °F /  -0.3 °C 29.60 in /  1002.3 hPa West 4.0 mph /  6.4 km/h 7.0 mph /  11.3 km/h 87 % 0.00 in /  0 mm 0 W/m2
19:16 34.9 °F /  1.6 °C 31.4 °F /  -0.3 °C 29.61 in /  1002.6 hPa West 3.0 mph /  4.8 km/h 6.0 mph /  9.7 km/h 87 % 0.00 in /  0 mm 0 W/m2
19:20 34.7 °F /  1.5 °C 31.2 °F /  -0.4 °C 29.61 in /  1002.6 hPa West 4.0 mph /  6.4 km/h 8.0 mph /  12.9 km/h 87 % 0.00 in /  0 mm 0 W/m2
19:25 34.5 °F /  1.4 °C 31.3 °F /  -0.4 °C 29.61 in /  1002.6 hPa WNW 6.0 mph /  9.7 km/h 8.0 mph /  12.9 km/h 88 % 0.00 in /  0 mm 0 W/m2
19:27 34.5 °F /  1.4 °C 31.3 °F /  -0.4 °C 29.61 in /  1002.6 hPa WNW 6.0 mph /  9.7 km/h 9.0 mph /  14.5 km/h 88 % 0.00 in /  0 mm 0 W/m2
19:32 34.3 °F /  1.3 °C 31.2 °F /  -0.4 °C 29.61 in /  1002.6 hPa WNW 6.0 mph /  9.7 km/h 10.0 mph /  16.1 km/h 88 % 0.00 in /  0 mm 0 W/m2
19:37 34.3 °F /  1.3 °C 31.2 °F /  -0.4 °C 29.61 in /  1002.6 hPa WNW 5.0 mph /  8 km/h 8.0 mph /  12.9 km/h 88 % 0.00 in /  0 mm 0 W/m2
19:40 34.3 °F /  1.3 °C 31.2 °F /  -0.4 °C 29.61 in /  1002.6 hPa West 6.0 mph /  9.7 km/h 9.0 mph /  14.5 km/h 88 % 0.00 in /  0 mm 0 W/m2
19:44 34.3 °F /  1.3 °C 31.2 °F /  -0.4 °C 29.61 in /  1002.6 hPa West 6.0 mph /  9.7 km/h 9.0 mph /  14.5 km/h 88 % 0.00 in /  0 mm 0 W/m2
19:46 34.3 °F /  1.3 °C 31.2 °F /  -0.4 °C 29.61 in /  1002.6 hPa West 4.0 mph /  6.4 km/h 7.0 mph /  11.3 km/h 88 % 0.00 in /  0 mm 0 W/m2
19:51 34.2 °F /  1.2 °C 31.3 °F /  -0.4 °C 29.61 in /  1002.6 hPa West 6.0 mph /  9.7 km/h 11.0 mph /  17.7 km/h 89 % 0.00 in /  0 mm 0 W/m2
19:52 34.2 °F /  1.2 °C 31.3 °F /  -0.4 °C 29.61 in /  1002.6 hPa West 6.0 mph /  9.7 km/h 11.0 mph /  17.7 km/h 89 % 0.00 in /  0 mm 0 W/m2
19:57 34.3 °F /  1.3 °C 31.4 °F /  -0.3 °C 29.62 in /  1002.9 hPa West 5.0 mph /  8 km/h 8.0 mph /  12.9 km/h 89 % 0.00 in /  0 mm 0 W/m2
20:00 34.3 °F /  1.3 °C 31.4 °F /  -0.3 °C 29.62 in /  1002.9 hPa WNW 7.0 mph /  11.3 km/h 10.0 mph /  16.1 km/h 89 % 0.00 in /  0 mm 0 W/m2
20:05 34.3 °F /  1.3 °C 31.4 °F /  -0.3 °C 29.61 in /  1002.6 hPa WNW 6.0 mph /  9.7 km/h 9.0 mph /  14.5 km/h 89 % 0.00 in /  0 mm 0 W/m2
20:06 34.3 °F /  1.3 °C 31.4 °F /  -0.3 °C 29.61 in /  1002.6 hPa West 7.0 mph /  11.3 km/h 10.0 mph /  16.1 km/h 89 % 0.00 in /  0 mm 0 W/m2
20:11 34.3 °F /  1.3 °C 31.7 °F /  -0.2 °C 29.61 in /  1002.6 hPa West 7.0 mph /  11.3 km/h 12.0 mph /  19.3 km/h 90 % 0.00 in /  0 mm 0 W/m2
20:14 34.3 °F /  1.3 °C 31.7 °F /  -0.2 °C 29.62 in /  1002.9 hPa West 7.0 mph /  11.3 km/h 11.0 mph /  17.7 km/h 90 % 0.00 in /  0 mm 0 W/m2
20:19 34.3 °F /  1.3 °C 31.7 °F /  -0.2 °C 29.61 in /  1002.6 hPa West 6.0 mph /  9.7 km/h 10.0 mph /  16.1 km/h 90 % 0.00 in /  0 mm 0 W/m2
20:24 34.3 °F /  1.3 °C 31.7 °F /  -0.2 °C 29.62 in /  1002.9 hPa West 6.0 mph /  9.7 km/h 9.0 mph /  14.5 km/h 90 % 0.00 in /  0 mm 0 W/m2
20:29 34.5 °F /  1.4 °C 31.9 °F /  -0.1 °C 29.62 in /  1002.9 hPa West 4.0 mph /  6.4 km/h 8.0 mph /  12.9 km/h 90 % 0.00 in /  0 mm 0 W/m2
20:30 34.5 °F /  1.4 °C 31.9 °F /  -0.1 °C 29.62 in /  1002.9 hPa West 4.0 mph /  6.4 km/h 8.0 mph /  12.9 km/h 90 % 0.00 in /  0 mm 0 W/m2
20:35 34.3 °F /  1.3 °C 31.7 °F /  -0.2 °C 29.62 in /  1002.9 hPa WNW 5.0 mph /  8 km/h 9.0 mph /  14.5 km/h 90 % 0.00 in /  0 mm 0 W/m2
20:37 34.5 °F /  1.4 °C 31.9 °F /  -0.1 °C 29.62 in /  1002.9 hPa WNW 4.0 mph /  6.4 km/h 7.0 mph /  11.3 km/h 90 % 0.00 in /  0 mm 0 W/m2
20:39 34.5 °F /  1.4 °C 31.9 °F /  -0.1 °C 29.62 in /  1002.9 hPa WNW 5.0 mph /  8 km/h 7.0 mph /  11.3 km/h 90 % 0.00 in /  0 mm 0 W/m2
20:44 34.3 °F /  1.3 °C 31.7 °F /  -0.2 °C 29.62 in /  1002.9 hPa WNW 2.0 mph /  3.2 km/h 5.0 mph /  8 km/h 90 % 0.00 in /  0 mm 0 W/m2
20:49 34.3 °F /  1.3 °C 31.7 °F /  -0.2 °C 29.62 in /  1002.9 hPa NW 2.0 mph /  3.2 km/h 5.0 mph /  8 km/h 90 % 0.00 in /  0 mm 0 W/m2
20:50 34.3 °F /  1.3 °C 31.7 °F /  -0.2 °C 29.62 in /  1002.9 hPa NW 1.0 mph /  1.6 km/h 2.0 mph /  3.2 km/h 90 % 0.00 in /  0 mm 0 W/m2
20:54 34.3 °F /  1.3 °C 31.7 °F /  -0.2 °C 29.62 in /  1002.9 hPa Calm   1.0 mph /  1.6 km/h 90 % 0.00 in /  0 mm 0 W/m2
20:57 34.2 °F /  1.2 °C 31.5 °F /  -0.3 °C 29.62 in /  1002.9 hPa WNW 1.0 mph /  1.6 km/h 5.0 mph /  8 km/h 90 % 0.00 in /  0 mm 0 W/m2
21:02 34.0 °F /  1.1 °C 31.4 °F /  -0.3 °C 29.62 in /  1002.9 hPa WNW 1.0 mph /  1.6 km/h 3.0 mph /  4.8 km/h 90 % 0.00 in /  0 mm 0 W/m2
21:06 33.8 °F /  1 °C 31.2 °F /  -0.4 °C 29.63 in /  1003.3 hPa WNW 1.0 mph /  1.6 km/h 4.0 mph /  6.4 km/h 90 % 0.00 in /  0 mm 0 W/m2
21:08 33.6 °F /  0.9 °C 31.0 °F /  -0.6 °C 29.63 in /  1003.3 hPa WNW 1.0 mph /  1.6 km/h 4.0 mph /  6.4 km/h 90 % 0.00 in /  0 mm 0 W/m2
21:13 33.6 °F /  0.9 °C 31.0 °F /  -0.6 °C 29.63 in /  1003.3 hPa Calm     90 % 0.00 in /  0 mm 0 W/m2
21:14 33.6 °F /  0.9 °C 31.0 °F /  -0.6 °C 29.63 in /  1003.3 hPa Calm   3.0 mph /  4.8 km/h 90 % 0.00 in /  0 mm 0 W/m2
21:19 33.4 °F /  0.8 °C 30.8 °F /  -0.7 °C 29.63 in /  1003.3 hPa Calm   2.0 mph /  3.2 km/h 90 % 0.00 in /  0 mm 0 W/m2
21:20 33.3 °F /  0.7 °C 30.6 °F /  -0.8 °C 29.63 in /  1003.3 hPa Calm   2.0 mph /  3.2 km/h 90 % 0.00 in /  0 mm 0 W/m2
21:25 33.3 °F /  0.7 °C 30.6 °F /  -0.8 °C 29.63 in /  1003.3 hPa Calm   2.0 mph /  3.2 km/h 90 % 0.00 in /  0 mm 0 W/m2
21:26 33.1 °F /  0.6 °C 30.5 °F /  -0.8 °C 29.63 in /  1003.3 hPa Calm   2.0 mph /  3.2 km/h 90 % 0.00 in /  0 mm 0 W/m2
21:28 33.1 °F /  0.6 °C 30.5 °F /  -0.8 °C 29.63 in /  1003.3 hPa Calm   2.0 mph /  3.2 km/h 90 % 0.00 in /  0 mm 0 W/m2
21:32 33.1 °F /  0.6 °C 30.7 °F /  -0.7 °C 29.63 in /  1003.3 hPa Calm   1.0 mph /  1.6 km/h 91 % 0.00 in /  0 mm 0 W/m2
21:40 32.7 °F /  0.4 °C 30.4 °F /  -0.9 °C 29.63 in /  1003.3 hPa SSW 2.0 mph /  3.2 km/h 4.0 mph /  6.4 km/h 91 % 0.00 in /  0 mm 0 W/m2
21:42 32.9 °F /  0.5 °C 30.6 °F /  -0.8 °C 29.63 in /  1003.3 hPa SW 1.0 mph /  1.6 km/h 4.0 mph /  6.4 km/h 91 % 0.00 in /  0 mm 0 W/m2
21:43 32.7 °F /  0.4 °C 30.4 °F /  -0.9 °C 29.63 in /  1003.3 hPa SW 2.0 mph /  3.2 km/h 5.0 mph /  8 km/h 91 % 0.00 in /  0 mm 0 W/m2
21:48 32.9 °F /  0.5 °C 30.6 °F /  -0.8 °C 29.63 in /  1003.3 hPa WSW 3.0 mph /  4.8 km/h 5.0 mph /  8 km/h 91 % 0.00 in /  0 mm 0 W/m2
21:50 32.9 °F /  0.5 °C 30.6 °F /  -0.8 °C 29.63 in /  1003.3 hPa West 3.0 mph /  4.8 km/h 5.0 mph /  8 km/h 91 % 0.00 in /  0 mm 0 W/m2
21:51 32.9 °F /  0.5 °C 30.6 °F /  -0.8 °C 29.63 in /  1003.3 hPa West 3.0 mph /  4.8 km/h 8.0 mph /  12.9 km/h 91 % 0.00 in /  0 mm 0 W/m2
21:56 32.9 °F /  0.5 °C 30.6 °F /  -0.8 °C 29.63 in /  1003.3 hPa WSW 2.0 mph /  3.2 km/h 4.0 mph /  6.4 km/h 91 % 0.00 in /  0 mm 0 W/m2
22:01 32.7 °F /  0.4 °C 30.4 °F /  -0.9 °C 29.63 in /  1003.3 hPa West 3.0 mph /  4.8 km/h 7.0 mph /  11.3 km/h 91 % 0.00 in /  0 mm 0 W/m2
22:04 32.7 °F /  0.4 °C 30.4 °F /  -0.9 °C 29.63 in /  1003.3 hPa WSW 2.0 mph /  3.2 km/h 4.0 mph /  6.4 km/h 91 % 0.00 in /  0 mm 0 W/m2
22:05 32.7 °F /  0.4 °C 30.4 °F /  -0.9 °C 29.63 in /  1003.3 hPa WSW 2.0 mph /  3.2 km/h 4.0 mph /  6.4 km/h 91 % 0.00 in /  0 mm 0 W/m2
22:10 32.7 °F /  0.4 °C 30.4 °F /  -0.9 °C 29.63 in /  1003.3 hPa West 4.0 mph /  6.4 km/h 6.0 mph /  9.7 km/h 91 % 0.00 in /  0 mm 0 W/m2
22:12 32.7 °F /  0.4 °C 30.4 °F /  -0.9 °C 29.63 in /  1003.3 hPa WNW 4.0 mph /  6.4 km/h 6.0 mph /  9.7 km/h 91 % 0.00 in /  0 mm 0 W/m2
22:17 32.7 °F /  0.4 °C 30.7 °F /  -0.7 °C 29.63 in /  1003.3 hPa West 4.0 mph /  6.4 km/h 7.0 mph /  11.3 km/h 92 % 0.00 in /  0 mm 0 W/m2
22:23 32.7 °F /  0.4 °C 30.7 °F /  -0.7 °C 29.63 in /  1003.3 hPa West 5.0 mph /  8 km/h 7.0 mph /  11.3 km/h 92 % 0.00 in /  0 mm 0 W/m2
22:24 32.7 °F /  0.4 °C 30.7 °F /  -0.7 °C 29.63 in /  1003.3 hPa West 5.0 mph /  8 km/h 7.0 mph /  11.3 km/h 92 % 0.00 in /  0 mm 0 W/m2
22:29 32.7 °F /  0.4 °C 30.7 °F /  -0.7 °C 29.63 in /  1003.3 hPa West 8.0 mph /  12.9 km/h 14.0 mph /  22.5 km/h 92 % 0.00 in /  0 mm 0 W/m2
22:31 33.1 °F /  0.6 °C 31.0 °F /  -0.6 °C 29.63 in /  1003.3 hPa West 8.0 mph /  12.9 km/h 14.0 mph /  22.5 km/h 92 % 0.00 in /  0 mm 0 W/m2
22:36 33.4 °F /  0.8 °C 31.4 °F /  -0.3 °C 29.63 in /  1003.3 hPa West 10.0 mph /  16.1 km/h 12.0 mph /  19.3 km/h 92 % 0.00 in /  0 mm 0 W/m2
22:41 33.8 °F /  1 °C 31.5 °F /  -0.3 °C 29.63 in /  1003.3 hPa WNW 8.0 mph /  12.9 km/h 10.0 mph /  16.1 km/h 91 % 0.00 in /  0 mm 0 W/m2
22:42 33.8 °F /  1 °C 31.5 °F /  -0.3 °C 29.63 in /  1003.3 hPa WNW 7.0 mph /  11.3 km/h 10.0 mph /  16.1 km/h 91 % 0.00 in /  0 mm 0 W/m2
22:47 34.0 °F /  1.1 °C 31.4 °F /  -0.3 °C 29.63 in /  1003.3 hPa WNW 6.0 mph /  9.7 km/h 10.0 mph /  16.1 km/h 90 % 0.00 in /  0 mm 0 W/m2
22:51 34.0 °F /  1.1 °C 31.4 °F /  -0.3 °C 29.62 in /  1002.9 hPa NW 5.0 mph /  8 km/h 9.0 mph /  14.5 km/h 90 % 0.00 in /  0 mm 0 W/m2
22:53 34.0 °F /  1.1 °C 31.1 °F /  -0.5 °C 29.62 in /  1002.9 hPa NW 5.0 mph /  8 km/h 9.0 mph /  14.5 km/h 89 % 0.00 in /  0 mm 0 W/m2
22:58 33.8 °F /  1 °C 30.9 °F /  -0.6 °C 29.62 in /  1002.9 hPa NW 4.0 mph /  6.4 km/h 6.0 mph /  9.7 km/h 89 % 0.00 in /  0 mm 0 W/m2
23:03 33.6 °F /  0.9 °C 30.7 °F /  -0.7 °C 29.62 in /  1002.9 hPa WNW 2.0 mph /  3.2 km/h 6.0 mph /  9.7 km/h 89 % 0.00 in /  0 mm 0 W/m2
23:06 33.6 °F /  0.9 °C 30.7 °F /  -0.7 °C 29.62 in /  1002.9 hPa NW 1.0 mph /  1.6 km/h 5.0 mph /  8 km/h 89 % 0.00 in /  0 mm 0 W/m2
23:07 33.6 °F /  0.9 °C 30.7 °F /  -0.7 °C 29.62 in /  1002.9 hPa Calm   4.0 mph /  6.4 km/h 89 % 0.00 in /  0 mm 0 W/m2
23:12 33.4 °F /  0.8 °C 30.5 °F /  -0.8 °C 29.62 in /  1002.9 hPa Calm     89 % 0.00 in /  0 mm 0 W/m2
23:13 33.4 °F /  0.8 °C 30.5 °F /  -0.8 °C 29.62 in /  1002.9 hPa Calm     89 % 0.00 in /  0 mm 0 W/m2
23:17 33.1 °F /  0.6 °C 29.9 °F /  -1.2 °C 29.61 in /  1002.6 hPa Calm   1.0 mph /  1.6 km/h 88 % 0.00 in /  0 mm 0 W/m2
23:22 32.7 °F /  0.4 °C 29.6 °F /  -1.3 °C 29.61 in /  1002.6 hPa Calm     88 % 0.00 in /  0 mm 0 W/m2
23:23 32.7 °F /  0.4 °C 29.6 °F /  -1.3 °C 29.61 in /  1002.6 hPa Calm   1.0 mph /  1.6 km/h 88 % 0.00 in /  0 mm 0 W/m2
23:28 32.5 °F /  0.3 °C 29.7 °F /  -1.3 °C 29.61 in /  1002.6 hPa West 3.0 mph /  4.8 km/h 7.0 mph /  11.3 km/h 89 % 0.00 in /  0 mm 0 W/m2
23:32 32.5 °F /  0.3 °C 29.7 °F /  -1.3 °C 29.61 in /  1002.6 hPa West 3.0 mph /  4.8 km/h 5.0 mph /  8 km/h 89 % 0.00 in /  0 mm 0 W/m2
23:41 32.4 °F /  0.2 °C 29.5 °F /  -1.4 °C 29.61 in /  1002.6 hPa Calm   3.0 mph /  4.8 km/h 89 % 0.00 in /  0 mm 0 W/m2
23:46 32.2 °F /  0.1 °C 29.3 °F /  -1.5 °C 29.61 in /  1002.6 hPa Calm   1.0 mph /  1.6 km/h 89 % 0.00 in /  0 mm 0 W/m2
23:47 32.2 °F /  0.1 °C 29.3 °F /  -1.5 °C 29.61 in /  1002.6 hPa Calm   2.0 mph /  3.2 km/h 89 % 0.00 in /  0 mm 0 W/m2
23:52 32.0 °F /  0 °C 29.1 °F /  -1.6 °C 29.61 in /  1002.6 hPa West 2.0 mph /  3.2 km/h 4.0 mph /  6.4 km/h 89 % 0.00 in /  0 mm 0 W/m2
23:53 32.0 °F /  0 °C 29.1 °F /  -1.6 °C 29.61 in /  1002.6 hPa West 1.0 mph /  1.6 km/h 2.0 mph /  3.2 km/h 89 % 0.00 in /  0 mm 0 W/m2
23:58 32.0 °F /  0 °C 29.4 °F /  -1.4 °C 29.61 in /  1002.6 hPa West 1.0 mph /  1.6 km/h 4.0 mph /  6.4 km/h 90 % 0.00 in /  0 mm 0 W/m2
Delerius-Weather
Compliments of Weather Underground - 3 mb

Data updates at regular intervals.